Time,TemperatureF,DewpointF,PressureIn,WindDirection,WindDirectionDegrees,WindSpeedMPH,WindSpeedGustMPH,Humidity,HourlyPrecipIn,Conditions,Clouds,dailyrainin,SoftwareType,DateUTC
2013-03-09 06:28:00,52.8,46.5,29.90,NNW,341,1.0,1.0,79,0.50,,BKN050,0.09,VWS V14.01,2013-03-08 16:28:00,
2013-03-09 06:29:00,52.8,46.1,29.90,NNW,346,2.0,2.0,78,0.00,,BKN050,0.09,VWS V14.01,2013-03-08 16:29:00,
2013-03-09 06:31:00,53.2,46.5,29.90,NNW,346,0.0,1.0,78,0.00,,BKN050,0.09,VWS V14.01,2013-03-08 16:31:00,
2013-03-09 06:32:00,53.3,46.6,29.90,NNW,346,2.0,2.0,78,0.00,,BKN050,0.09,VWS V14.01,2013-03-08 16:32:00,
2013-03-09 06:33:00,53.3,45.6,29.90,NNW,341,1.0,3.0,75,0.00,,BKN050,0.09,VWS V14.01,2013-03-08 16:33:00,
2013-03-09 06:34:00,53.2,45.1,29.90,NNW,342,4.0,4.0,74,0.00,,BKN050,0.09,VWS V14.01,2013-03-08 16:34:00,
2013-03-09 06:35:00,53.1,45.0,29.90,NNW,341,1.0,4.0,74,0.00,,BKN050,0.09,VWS V14.01,2013-03-08 16:35:00,
2013-03-09 06:36:00,53.2,45.5,29.90,NNW,341,1.0,1.0,75,0.00,,BKN050,0.09,VWS V14.01,2013-03-08 16:36:00,
2013-03-09 06:37:00,53.2,45.5,29.90,NNW,341,0.0,1.0,75,0.00,,BKN050,0.09,VWS V14.01,2013-03-08 16:37:00,
2013-03-09 06:39:00,53.4,45.7,29.90,NNW,341,0.0,1.0,75,0.00,,BKN050,0.09,VWS V14.01,2013-03-08 16:39:00,
2013-03-09 06:41:00,53.9,46.9,29.90,NNW,341,1.0,2.0,77,0.00,,BKN050,0.09,VWS V14.01,2013-03-08 16:41:00,
2013-03-09 06:42:00,54.0,46.3,29.90,NNW,342,1.0,2.0,75,0.00,,BKN050,0.09,VWS V14.01,2013-03-08 16:42:00,
2013-03-09 06:43:00,53.9,45.5,29.90,NNW,342,0.0,1.0,73,0.00,,BKN050,0.09,VWS V14.01,2013-03-08 16:43:00,
2013-03-09 06:44:00,54.0,45.5,29.90,NNW,341,0.0,1.0,73,0.00,,BKN050,0.09,VWS V14.01,2013-03-08 16:44:00,
2013-03-09 06:45:00,54.1,46.4,29.90,NNW,341,0.0,0.0,75,0.00,,BKN050,0.09,VWS V14.01,2013-03-08 16:45:00,
2013-03-09 06:46:00,54.4,46.7,29.90,NNW,341,2.0,3.0,75,0.00,,BKN050,0.09,VWS V14.01,2013-03-08 16:46:00,
2013-03-09 06:47:00,54.4,46.3,29.90,NNW,341,3.0,3.0,74,0.00,,BKN050,0.09,VWS V14.01,2013-03-08 16:47:00,
2013-03-09 06:48:00,54.4,45.9,29.90,NNW,342,3.0,3.0,73,0.00,,BKN050,0.09,VWS V14.01,2013-03-08 16:48:00,
2013-03-09 06:49:00,54.4,45.9,29.90,NNW,341,1.0,3.0,73,0.00,,BKN050,0.09,VWS V14.01,2013-03-08 16:49:00,
2013-03-09 06:50:00,54.3,45.8,29.90,NNW,342,0.0,1.0,73,0.00,,BKN050,0.09,VWS V14.01,2013-03-08 16:50:00,
2013-03-09 06:51:00,54.7,46.9,29.90,NNW,342,0.0,0.0,75,0.00,,BKN050,0.09,VWS V14.01,2013-03-08 16:51:00,
2013-03-09 06:52:00,55.0,46.9,29.90,NNW,342,0.0,0.0,74,0.00,,BKN050,0.09,VWS V14.01,2013-03-08 16:52:00,
2013-03-09 06:53:00,55.1,47.3,29.90,NNW,341,0.0,1.0,75,0.00,,BKN050,0.09,VWS V14.01,2013-03-08 16:53:00,
2013-03-09 06:54:00,55.3,47.2,29.90,NNW,341,1.0,1.0,74,0.00,,BKN050,0.09,VWS V14.01,2013-03-08 16:54:00,
2013-03-09 06:55:00,55.2,46.7,29.90,NNW,341,2.0,2.0,73,0.00,,BKN050,0.09,VWS V14.01,2013-03-08 16:55:00,
2013-03-09 06:56:00,55.1,46.2,29.90,NNW,341,1.0,2.0,72,0.00,,BKN050,0.09,VWS V14.01,2013-03-08 16:56:00,
2013-03-09 06:57:00,55.1,46.6,29.90,NNW,342,0.0,2.0,73,0.00,,BKN050,0.09,VWS V14.01,2013-03-08 16:57:00,
2013-03-09 06:58:00,55.0,45.8,29.90,NNW,341,2.0,2.0,71,0.00,,BKN050,0.09,VWS V14.01,2013-03-08 16:58:00,
2013-03-09 07:01:00,54.8,46.3,29.90,NNW,342,2.0,3.0,73,0.00,,BKN050,0.09,VWS V14.01,2013-03-08 17:01:00,
2013-03-09 07:02:00,54.9,46.1,29.90,NNW,333,2.0,4.0,72,0.00,,BKN050,0.09,VWS V14.01,2013-03-08 17:02:00,
2013-03-09 07:04:00,55.1,45.9,29.90,NNW,338,3.0,6.0,71,0.00,,BKN050,0.09,VWS V14.01,2013-03-08 17:04:00,
2013-03-09 07:06:00,55.3,46.4,29.90,NNW,336,1.0,2.0,72,0.00,,BKN050,0.09,VWS V14.01,2013-03-08 17:06:00,
2013-03-09 07:10:00,55.9,47.0,29.90,NNW,336,2.0,2.0,72,0.00,,BKN050,0.09,VWS V14.01,2013-03-08 17:10:00,
2013-03-09 07:11:00,56.2,46.9,29.90,NNW,335,2.0,4.0,71,0.00,,BKN050,0.09,VWS V14.01,2013-03-08 17:11:00,
2013-03-09 07:12:00,56.4,47.1,29.90,NNW,339,1.0,4.0,71,0.00,,BKN050,0.09,VWS V14.01,2013-03-08 17:12:00,
2013-03-09 07:14:00,56.5,46.5,29.90,NW,311,4.0,7.0,69,0.00,,BKN050,0.09,VWS V14.01,2013-03-08 17:14:00,
2013-03-09 07:15:00,56.3,45.5,29.90,NW,319,3.0,8.0,67,0.00,,BKN050,0.09,VWS V14.01,2013-03-08 17:15:00,
2013-03-09 07:16:00,56.0,45.2,29.90,NW,318,3.0,3.0,67,0.00,,BKN050,0.09,VWS V14.01,2013-03-08 17:16:00,
2013-03-09 07:17:00,56.0,45.6,29.90,NW,323,1.0,4.0,68,0.00,,BKN050,0.09,VWS V14.01,2013-03-08 17:17:00,
2013-03-09 07:18:00,56.0,46.4,29.90,NW,317,2.0,5.0,70,0.00,,BKN050,0.09,VWS V14.01,2013-03-08 17:18:00,
2013-03-09 07:19:00,56.0,46.0,29.90,NW,317,0.0,3.0,69,0.00,,BKN050,0.09,VWS V14.01,2013-03-08 17:19:00,
2013-03-09 07:20:00,56.2,46.9,29.90,NNW,327,6.0,6.0,71,0.00,,BKN050,0.09,VWS V14.01,2013-03-08 17:20:00,
2013-03-09 07:21:00,56.3,46.7,29.90,NNW,347,3.0,6.0,70,0.00,,BKN050,0.09,VWS V14.01,2013-03-08 17:21:00,
2013-03-09 07:22:00,56.3,45.9,29.90,NW,320,4.0,6.0,68,0.00,,BKN050,0.09,VWS V14.01,2013-03-08 17:22:00,
2013-03-09 07:23:00,56.1,46.1,29.90,NW,320,1.0,4.0,69,0.00,,BKN050,0.09,VWS V14.01,2013-03-08 17:23:00,
2013-03-09 07:24:00,56.3,46.7,29.90,NW,319,2.0,4.0,70,0.00,,BKN050,0.09,VWS V14.01,2013-03-08 17:24:00,
2013-03-09 07:25:00,56.5,46.8,29.90,NW,319,3.0,3.0,70,0.00,,BKN050,0.09,VWS V14.01,2013-03-08 17:25:00,
2013-03-09 07:26:00,56.9,47.6,29.90,NNW,340,1.0,4.0,71,0.00,,BKN050,0.09,VWS V14.01,2013-03-08 17:26:00,
2013-03-09 07:27:00,52.8,46.5,29.90,NNW,341,1.0,1.0,79,0.00,,SCT100,0.09,VWS V14.01,2013-03-08 17:27:00,
2013-03-09 07:28:00,57.1,47.0,29.90,North,355,2.0,5.0,69,0.00,,BKN050,0.09,VWS V14.01,2013-03-08 17:28:00,
2013-03-09 07:29:00,56.9,46.5,29.90,North,355,4.0,6.0,68,0.00,,BKN050,0.09,VWS V14.01,2013-03-08 17:29:00,
2013-03-09 07:30:00,56.7,46.3,29.90,North,360,7.0,9.0,68,0.00,,BKN050,0.09,VWS V14.01,2013-03-08 17:30:00,
2013-03-09 07:31:00,56.4,46.0,29.90,NNW,338,3.0,7.0,68,0.00,,BKN050,0.09,VWS V14.01,2013-03-08 17:31:00,
2013-03-09 07:32:00,53.2,45.1,29.90,NNW,341,2.0,2.0,74,0.00,,SCT100,0.09,VWS V14.01,2013-03-08 17:32:00,
2013-03-09 07:33:00,56.7,47.0,29.90,NNW,338,1.0,1.0,70,0.00,,BKN050,0.09,VWS V14.01,2013-03-08 17:33:00,
2013-03-09 07:34:00,57.0,46.9,29.90,NNW,338,0.0,1.0,69,0.00,,BKN050,0.09,VWS V14.01,2013-03-08 17:34:00,
2013-03-09 07:35:00,57.4,47.7,29.91,NW,323,4.0,7.0,70,0.00,,BKN050,0.09,VWS V14.01,2013-03-08 17:35:00,
2013-03-09 07:36:00,57.5,47.4,29.91,NNW,335,2.0,5.0,69,0.00,,BKN050,0.09,VWS V14.01,2013-03-08 17:36:00,
2013-03-09 07:37:00,53.4,46.0,29.90,NNW,341,0.0,1.0,76,0.00,,SCT100,0.09,VWS V14.01,2013-03-08 17:37:00,
2013-03-09 07:39:00,57.5,47.0,29.91,WNW,295,2.0,7.0,68,0.00,,BKN050,0.09,VWS V14.01,2013-03-08 17:39:00,
2013-03-09 07:41:00,57.4,46.9,29.90,North,355,2.0,3.0,68,0.00,,BKN050,0.09,VWS V14.01,2013-03-08 17:41:00,
2013-03-09 07:42:00,53.9,45.5,29.90,NNW,342,0.0,1.0,73,0.00,,SCT100,0.09,VWS V14.01,2013-03-08 17:42:00,
2013-03-09 07:43:00,57.6,47.5,29.91,North,350,1.0,5.0,69,0.00,,BKN050,0.09,VWS V14.01,2013-03-08 17:43:00,
2013-03-09 07:46:00,58.0,48.3,29.91,North,11,2.0,4.0,70,0.00,,BKN050,0.09,VWS V14.01,2013-03-08 17:46:00,
2013-03-09 07:47:00,54.4,45.9,29.90,NNW,341,1.0,3.0,73,0.00,,SCT100,0.09,VWS V14.01,2013-03-08 17:47:00,
2013-03-09 07:48:00,58.0,48.3,29.90,North,355,3.0,4.0,70,0.00,,BKN050,0.09,VWS V14.01,2013-03-08 17:48:00,
2013-03-09 07:50:00,57.8,48.1,29.90,North,11,2.0,3.0,70,0.00,,BKN050,0.09,VWS V14.01,2013-03-08 17:50:00,
2013-03-09 07:51:00,57.7,47.6,29.90,North,11,1.0,3.0,69,0.00,,BKN050,0.09,VWS V14.01,2013-03-08 17:51:00,
2013-03-09 07:52:00,55.3,47.2,29.90,NNW,341,1.0,1.0,74,0.00,,SCT100,0.09,VWS V14.01,2013-03-08 17:52:00,
2013-03-09 07:55:00,58.7,48.6,29.90,NNW,340,5.0,5.0,69,0.00,,BKN050,0.09,VWS V14.01,2013-03-08 17:55:00,
2013-03-09 07:56:00,58.6,47.7,29.90,North,355,7.0,8.0,67,0.00,,BKN050,0.09,VWS V14.01,2013-03-08 17:56:00,
2013-03-09 07:57:00,54.8,45.6,29.90,NNW,342,2.0,2.0,71,0.00,,SCT100,0.09,VWS V14.01,2013-03-08 17:57:00,
2013-03-09 07:59:00,58.0,47.1,29.90,North,351,2.0,3.0,67,0.00,,BKN050,0.09,VWS V14.01,2013-03-08 17:59:00,
2013-03-09 08:00:00,58.0,47.5,29.90,North,349,1.0,4.0,68,0.00,,BKN050,0.09,VWS V14.01,2013-03-08 18:00:00,
2013-03-09 08:01:00,58.3,47.8,29.90,North,355,3.0,10.0,68,0.00,,BKN050,0.09,VWS V14.01,2013-03-08 18:01:00,
2013-03-09 08:02:00,55.1,45.9,29.90,NNW,329,4.0,6.0,71,0.00,,FEW065,0.09,VWS V14.01,2013-03-08 18:02:00,
2013-03-09 08:06:00,58.6,47.3,29.90,NNE,14,4.0,6.0,66,0.00,,BKN050,0.09,VWS V14.01,2013-03-08 18:06:00,
2013-03-09 08:07:00,55.7,46.5,29.90,NNW,336,0.0,3.0,71,0.00,,FEW065,0.09,VWS V14.01,2013-03-08 18:07:00,
2013-03-09 08:08:00,58.7,48.2,29.90,NW,306,5.0,6.0,68,0.00,,BKN050,0.09,VWS V14.01,2013-03-08 18:08:00,
2013-03-09 08:09:00,58.6,47.3,29.90,NNE,14,3.0,7.0,66,0.00,,BKN050,0.09,VWS V14.01,2013-03-08 18:09:00,
2013-03-09 08:11:00,58.2,46.9,29.90,North,355,4.0,7.0,66,0.00,,BKN050,0.09,VWS V14.01,2013-03-08 18:11:00,
2013-03-09 08:12:00,56.5,46.8,29.90,NW,306,5.0,7.0,70,0.00,,FEW065,0.09,VWS V14.01,2013-03-08 18:12:00,
2013-03-09 08:17:00,55.9,45.9,29.90,NW,317,0.0,3.0,69,0.00,,FEW065,0.09,VWS V14.01,2013-03-08 18:17:00,
2013-03-09 08:19:00,58.6,47.3,29.90,NW,321,6.0,9.0,66,0.00,,BKN050,0.09,VWS V14.01,2013-03-08 18:19:00,
2013-03-09 08:20:00,58.6,47.3,29.90,NW,323,1.0,8.0,66,0.00,,BKN050,0.09,VWS V14.01,2013-03-08 18:20:00,
2013-03-09 08:21:00,58.9,47.6,29.90,North,360,2.0,5.0,66,0.00,,BKN050,0.09,VWS V14.01,2013-03-08 18:21:00,
2013-03-09 08:22:00,56.3,46.7,29.90,NW,319,2.0,4.0,70,0.00,,FEW065,0.09,VWS V14.01,2013-03-08 18:22:00,
2013-03-09 08:23:00,58.9,46.8,29.90,NNW,345,1.0,2.0,64,0.00,,BKN050,0.09,VWS V14.01,2013-03-08 18:23:00,
2013-03-09 08:24:00,58.9,46.8,29.90,NNW,343,6.0,10.0,64,0.00,,BKN050,0.09,VWS V14.01,2013-03-08 18:24:00,
2013-03-09 08:26:00,58.8,46.7,29.90,North,355,9.0,9.0,64,0.00,,BKN050,0.09,VWS V14.01,2013-03-08 18:26:00,
2013-03-09 08:27:00,56.9,46.5,29.90,North,355,2.0,5.0,68,0.00,,FEW065,0.09,VWS V14.01,2013-03-08 18:27:00,
2013-03-09 08:29:00,58.7,46.2,29.90,NNW,327,7.0,12.0,63,0.00,,BKN050,0.09,VWS V14.01,2013-03-08 18:29:00,
2013-03-09 08:30:00,58.6,46.1,29.91,NNE,30,2.0,8.0,63,0.00,,BKN050,0.09,VWS V14.01,2013-03-08 18:30:00,
2013-03-09 08:32:00,56.9,46.8,29.90,NNW,338,0.0,1.0,69,0.00,,FEW065,0.09,VWS V14.01,2013-03-08 18:32:00,
2013-03-09 08:35:00,58.4,45.0,29.90,North,355,3.0,7.0,61,0.00,,BKN050,0.09,VWS V14.01,2013-03-08 18:35:00,
2013-03-09 08:37:00,57.5,47.0,29.91,WNW,295,5.0,7.0,68,0.00,,FEW065,0.09,VWS V14.01,2013-03-08 18:37:00,
2013-03-09 08:40:00,58.7,45.3,29.90,NNW,333,5.0,6.0,61,0.00,,BKN050,0.09,VWS V14.01,2013-03-08 18:40:00,
2013-03-09 08:42:00,57.7,47.6,29.91,NNE,13,4.0,6.0,69,0.00,,FEW065,0.09,VWS V14.01,2013-03-08 18:42:00,
2013-03-09 08:43:00,58.4,45.5,29.90,NE,48,4.0,7.0,62,0.00,,BKN050,0.09,VWS V14.01,2013-03-08 18:43:00,
2013-03-09 08:44:00,58.3,45.3,29.90,NW,311,7.0,9.0,62,0.00,,BKN050,0.09,VWS V14.01,2013-03-08 18:44:00,
2013-03-09 08:47:00,57.8,47.7,29.90,North,5,3.0,3.0,69,0.00,,FEW065,0.09,VWS V14.01,2013-03-08 18:47:00,
2013-03-09 08:50:00,59.2,45.8,29.90,NNW,340,2.0,10.0,61,0.00,,BKN050,0.09,VWS V14.01,2013-03-08 18:50:00,
2013-03-09 08:52:00,58.2,48.5,29.90,NW,313,0.0,1.0,70,0.00,,FEW065,0.09,VWS V14.01,2013-03-08 18:52:00,
2013-03-09 08:53:00,59.6,46.2,29.90,NNW,333,6.0,9.0,61,0.00,,BKN050,0.09,VWS V14.01,2013-03-08 18:53:00,
2013-03-09 08:54:00,59.4,44.6,29.90,NNW,327,7.0,7.0,58,0.00,,BKN050,0.09,VWS V14.01,2013-03-08 18:54:00,
2013-03-09 08:56:00,59.2,44.9,29.90,North,5,3.0,6.0,59,0.00,,BKN050,0.09,VWS V14.01,2013-03-08 18:56:00,
2013-03-09 08:57:00,58.0,47.1,29.90,North,351,2.0,3.0,67,0.00,,FEW065,0.09,VWS V14.01,2013-03-08 18:57:00,
2013-03-09 09:02:00,58.5,47.2,29.90,NE,34,2.0,7.0,66,0.00,,SCT180,0.09,VWS V14.01,2013-03-08 19:02:00,
2013-03-09 09:04:00,59.8,46.8,29.90,WNW,282,4.0,7.0,62,0.00,,BKN050,0.09,VWS V14.01,2013-03-08 19:04:00,
2013-03-09 09:05:00,59.8,45.9,29.90,West,268,7.0,8.0,60,0.00,,BKN050,0.09,VWS V14.01,2013-03-08 19:05:00,
2013-03-09 09:06:00,59.6,45.3,29.90,WNW,295,1.0,7.0,59,0.00,,BKN050,0.09,VWS V14.01,2013-03-08 19:06:00,
2013-03-09 09:07:00,58.7,47.4,29.90,NNE,26,3.0,7.0,66,0.00,,SCT180,0.09,VWS V14.01,2013-03-08 19:07:00,
2013-03-09 09:12:00,57.8,46.5,29.90,NNW,333,1.0,4.0,66,0.00,,SCT180,0.09,VWS V14.01,2013-03-08 19:12:00,
2013-03-09 09:16:00,59.6,44.4,29.90,NW,311,4.0,8.0,57,0.00,,BKN050,0.09,VWS V14.01,2013-03-08 19:16:00,
2013-03-09 09:17:00,58.5,47.2,29.90,NNW,332,8.0,8.0,66,0.00,,SCT180,0.09,VWS V14.01,2013-03-08 19:17:00,
2013-03-09 09:18:00,59.2,44.0,29.90,North,360,6.0,7.0,57,0.00,,BKN050,0.09,VWS V14.01,2013-03-08 19:18:00,
2013-03-09 09:22:00,59.0,46.8,29.90,NNW,336,6.0,10.0,64,0.00,,SCT180,0.09,VWS V14.01,2013-03-08 19:22:00,
2013-03-09 09:25:00,58.9,43.2,29.90,WSW,250,12.0,15.0,56,0.00,,BKN050,0.09,VWS V14.01,2013-03-08 19:25:00,
2013-03-09 09:26:00,58.8,43.2,29.90,West,281,3.0,12.0,56,0.00,,BKN050,0.09,VWS V14.01,2013-03-08 19:26:00,
2013-03-09 09:27:00,58.7,46.2,29.90,NNW,348,11.0,12.0,63,0.00,,SCT180,0.09,VWS V14.01,2013-03-08 19:27:00,
2013-03-09 09:32:00,58.4,45.5,29.90,North,5,7.0,8.0,62,0.00,,SCT180,0.09,VWS V14.01,2013-03-08 19:32:00,
2013-03-09 09:37:00,58.9,45.5,29.90,NNW,343,8.0,8.0,61,0.00,,SCT180,0.09,VWS V14.01,2013-03-08 19:37:00,
2013-03-09 09:38:00,60.5,43.8,29.90,NNW,347,1.0,5.0,54,0.00,,BKN050,0.09,VWS V14.01,2013-03-08 19:38:00,
2013-03-09 09:39:00,60.7,44.5,29.90,West,269,5.0,9.0,55,0.00,,BKN050,0.09,VWS V14.01,2013-03-08 19:39:00,
2013-03-09 09:42:00,58.4,45.5,29.90,North,11,6.0,8.0,62,0.00,,SCT180,0.09,VWS V14.01,2013-03-08 19:42:00,
2013-03-09 09:43:00,60.2,43.0,29.90,WNW,289,7.0,13.0,53,0.00,,BKN050,0.09,VWS V14.01,2013-03-08 19:43:00,
2013-03-09 09:47:00,59.2,45.8,29.90,NW,315,6.0,10.0,61,0.00,,SCT180,0.09,VWS V14.01,2013-03-08 19:47:00,
2013-03-09 09:52:00,59.5,45.2,29.90,NW,325,3.0,7.0,59,0.00,,SCT180,0.09,VWS V14.01,2013-03-08 19:52:00,
2013-03-09 09:54:00,60.4,41.7,29.90,West,262,4.0,6.0,50,0.00,,BKN050,0.09,VWS V14.01,2013-03-08 19:54:00,
2013-03-09 09:56:00,60.2,41.0,29.90,NW,324,4.0,15.0,49,0.00,,BKN050,0.09,VWS V14.01,2013-03-08 19:56:00,
2013-03-09 09:57:00,59.1,45.2,29.90,NNW,331,5.0,8.0,60,0.00,,SCT180,0.09,VWS V14.01,2013-03-08 19:57:00,
2013-03-09 10:02:00,59.7,46.7,29.90,NW,306,3.0,3.0,62,0.00,,SCT180,0.09,VWS V14.01,2013-03-08 20:02:00,
2013-03-09 10:04:00,60.4,41.7,29.90,WNW,297,5.0,9.0,50,0.00,,BKN050,0.09,VWS V14.01,2013-03-08 20:04:00,
2013-03-09 10:05:00,60.6,41.9,29.90,NW,317,2.0,7.0,50,0.00,,BKN050,0.09,VWS V14.01,2013-03-08 20:05:00,
2013-03-09 10:06:00,60.7,42.0,29.90,North,355,8.0,9.0,50,0.00,,BKN050,0.09,VWS V14.01,2013-03-08 20:06:00,
2013-03-09 10:07:00,59.5,44.7,29.90,NW,319,8.0,8.0,58,0.00,,SCT180,0.09,VWS V14.01,2013-03-08 20:07:00,
2013-03-09 10:08:00,60.6,41.3,29.90,WNW,298,7.0,12.0,49,0.00,,BKN050,0.09,VWS V14.01,2013-03-08 20:08:00,
2013-03-09 10:09:00,60.4,41.7,29.90,West,267,7.0,11.0,50,0.00,,BKN050,0.09,VWS V14.01,2013-03-08 20:09:00,
2013-03-09 10:10:00,60.1,41.4,29.90,West,267,11.0,12.0,50,0.00,,BKN050,0.09,VWS V14.01,2013-03-08 20:10:00,
2013-03-09 10:11:00,59.9,41.8,29.90,NW,315,9.0,11.0,51,0.00,,BKN050,0.09,VWS V14.01,2013-03-08 20:11:00,
2013-03-09 10:12:00,59.5,44.3,29.90,NW,304,8.0,8.0,57,0.00,,SCT180,0.09,VWS V14.01,2013-03-08 20:12:00,
2013-03-09 10:13:00,59.7,42.1,29.90,West,278,5.0,11.0,52,0.00,,BKN050,0.09,VWS V14.01,2013-03-08 20:13:00,
2013-03-09 10:14:00,59.8,42.2,29.90,West,261,4.0,6.0,52,0.00,,BKN050,0.09,VWS V14.01,2013-03-08 20:14:00,
2013-03-09 10:15:00,59.9,42.7,29.90,NNW,340,7.0,9.0,53,0.00,,BKN050,0.09,VWS V14.01,2013-03-08 20:15:00,
2013-03-09 10:16:00,59.8,42.2,29.90,NW,315,3.0,7.0,52,0.00,,BKN050,0.09,VWS V14.01,2013-03-08 20:16:00,
2013-03-09 10:17:00,59.2,44.0,29.90,NNW,338,4.0,6.0,57,0.00,,SCT180,0.09,VWS V14.01,2013-03-08 20:17:00,
2013-03-09 10:18:00,59.7,42.6,29.90,WSW,246,3.0,11.0,53,0.00,,BKN050,0.09,VWS V14.01,2013-03-08 20:18:00,
2013-03-09 10:19:00,59.6,42.0,29.90,NW,315,5.0,10.0,52,0.00,,BKN050,0.09,VWS V14.01,2013-03-08 20:19:00,
2013-03-09 10:20:00,59.6,42.0,29.90,WNW,300,7.0,10.0,52,0.00,,BKN050,0.09,VWS V14.01,2013-03-08 20:20:00,
2013-03-09 10:21:00,59.5,41.9,29.90,WSW,250,6.0,12.0,52,0.00,,BKN050,0.09,VWS V14.01,2013-03-08 20:21:00,
2013-03-09 10:22:00,59.1,44.3,29.90,WNW,292,8.0,15.0,58,0.00,,SCT180,0.09,VWS V14.01,2013-03-08 20:22:00,
2013-03-09 10:23:00,59.4,41.8,29.90,West,266,8.0,14.0,52,0.00,,BKN050,0.09,VWS V14.01,2013-03-08 20:23:00,
2013-03-09 10:24:00,59.3,42.2,29.90,WNW,284,7.0,12.0,53,0.00,,BKN050,0.09,VWS V14.01,2013-03-08 20:24:00,
2013-03-09 10:25:00,59.2,42.1,29.90,WSW,254,8.0,9.0,53,0.00,,BKN050,0.09,VWS V14.01,2013-03-08 20:25:00,
2013-03-09 10:26:00,59.1,42.5,29.90,WNW,299,2.0,11.0,54,0.00,,BKN050,0.09,VWS V14.01,2013-03-08 20:26:00,
2013-03-09 10:27:00,59.6,44.4,29.90,WNW,298,2.0,5.0,57,0.00,,SCT180,0.09,VWS V14.01,2013-03-08 20:27:00,
2013-03-09 10:28:00,59.5,42.4,29.90,West,267,4.0,9.0,53,0.00,,BKN050,0.09,VWS V14.01,2013-03-08 20:28:00,
2013-03-09 10:29:00,59.3,41.7,29.90,West,281,2.0,9.0,52,0.00,,BKN050,0.09,VWS V14.01,2013-03-08 20:29:00,
2013-03-09 10:30:00,59.1,42.0,29.90,West,261,10.0,10.0,53,0.00,,BKN050,0.09,VWS V14.01,2013-03-08 20:30:00,
2013-03-09 10:31:00,59.2,42.6,29.90,West,280,10.0,10.0,54,0.00,,BKN050,0.09,VWS V14.01,2013-03-08 20:31:00,
2013-03-09 10:32:00,60.5,44.7,29.90,SW,234,10.0,10.0,56,0.00,,SCT180,0.09,VWS V14.01,2013-03-08 20:32:00,
2013-03-09 10:33:00,59.4,42.8,29.90,SW,223,8.0,11.0,54,0.00,,BKN050,0.09,VWS V14.01,2013-03-08 20:33:00,
2013-03-09 10:34:00,59.4,42.8,29.90,West,262,3.0,8.0,54,0.00,,BKN050,0.09,VWS V14.01,2013-03-08 20:34:00,
2013-03-09 10:35:00,59.4,42.8,29.90,SW,231,13.0,17.0,54,0.00,,BKN050,0.09,VWS V14.01,2013-03-08 20:35:00,
2013-03-09 10:36:00,59.3,42.2,29.90,West,272,5.0,13.0,53,0.00,,BKN050,0.09,VWS V14.01,2013-03-08 20:36:00,
2013-03-09 10:37:00,60.6,44.4,29.90,NW,317,7.0,9.0,55,0.00,,SCT180,0.09,VWS V14.01,2013-03-08 20:37:00,
2013-03-09 10:39:00,59.1,42.0,29.90,West,272,2.0,7.0,53,0.00,,BKN050,0.09,VWS V14.01,2013-03-08 20:39:00,
2013-03-09 10:40:00,59.1,42.0,29.90,West,281,5.0,11.0,53,0.00,,BKN050,0.09,VWS V14.01,2013-03-08 20:40:00,
2013-03-09 10:41:00,59.0,41.9,29.90,West,267,7.0,13.0,53,0.00,,BKN050,0.09,VWS V14.01,2013-03-08 20:41:00,
2013-03-09 10:42:00,60.2,43.5,29.90,NNW,333,6.0,8.0,54,0.00,,SCT180,0.09,VWS V14.01,2013-03-08 20:42:00,
2013-03-09 10:43:00,58.9,41.8,29.90,West,267,6.0,9.0,53,0.00,,BKN050,0.09,VWS V14.01,2013-03-08 20:43:00,
2013-03-09 10:44:00,58.8,41.7,29.90,West,274,12.0,15.0,53,0.00,,BKN050,0.09,VWS V14.01,2013-03-08 20:44:00,
2013-03-09 10:45:00,58.6,41.5,29.90,WNW,300,3.0,14.0,53,0.00,,BKN050,0.09,VWS V14.01,2013-03-08 20:45:00,
2013-03-09 10:46:00,58.6,42.0,29.90,NW,305,3.0,7.0,54,0.00,,BKN050,0.09,VWS V14.01,2013-03-08 20:46:00,
2013-03-09 10:47:00,60.4,42.2,29.90,NW,315,6.0,10.0,51,0.00,,SCT180,0.09,VWS V14.01,2013-03-08 20:47:00,
2013-03-09 10:48:00,59.1,42.0,29.90,WNW,296,2.0,6.0,53,0.00,,BKN050,0.09,VWS V14.01,2013-03-08 20:48:00,
2013-03-09 10:49:00,59.4,42.3,29.90,WSW,258,4.0,8.0,53,0.00,,BKN050,0.09,VWS V14.01,2013-03-08 20:49:00,
2013-03-09 10:50:00,59.5,42.4,29.90,West,280,5.0,10.0,53,0.00,,BKN050,0.09,VWS V14.01,2013-03-08 20:50:00,
2013-03-09 10:51:00,59.5,41.9,29.90,WNW,291,3.0,9.0,52,0.00,,BKN050,0.09,VWS V14.01,2013-03-08 20:51:00,
2013-03-09 10:52:00,60.3,41.6,29.90,West,281,4.0,6.0,50,0.00,,SCT180,0.09,VWS V14.01,2013-03-08 20:52:00,
2013-03-09 10:53:00,59.1,42.0,29.90,WSW,238,7.0,12.0,53,0.00,,BKN050,0.09,VWS V14.01,2013-03-08 20:53:00,
2013-03-09 10:54:00,58.9,41.8,29.90,West,264,9.0,14.0,53,0.00,,BKN050,0.09,VWS V14.01,2013-03-08 20:54:00,
2013-03-09 10:55:00,58.6,41.5,29.90,NW,309,8.0,17.0,53,0.00,,BKN050,0.09,VWS V14.01,2013-03-08 20:55:00,
2013-03-09 10:56:00,58.3,41.7,29.90,WNW,286,5.0,12.0,54,0.00,,BKN050,0.09,VWS V14.01,2013-03-08 20:56:00,
2013-03-09 10:57:00,60.5,41.8,29.90,WSW,254,10.0,10.0,50,0.00,,SCT180,0.09,VWS V14.01,2013-03-08 20:57:00,
2013-03-09 10:58:00,58.0,41.9,29.90,West,265,8.0,10.0,55,0.00,,BKN050,0.09,VWS V14.01,2013-03-08 20:58:00,
2013-03-09 10:59:00,57.9,41.8,29.90,WSW,248,6.0,16.0,55,0.00,,BKN050,0.09,VWS V14.01,2013-03-08 20:59:00,
2013-03-09 11:00:00,57.7,42.1,29.90,WSW,242,9.0,12.0,56,0.00,,BKN050,0.09,VWS V14.01,2013-03-08 21:00:00,
2013-03-09 11:01:00,57.7,42.1,29.90,WNW,283,5.0,13.0,56,0.00,,BKN050,0.09,VWS V14.01,2013-03-08 21:01:00,
2013-03-09 11:02:00,60.3,41.1,29.90,NW,322,3.0,4.0,49,0.00,,SCT180,0.09,VWS V14.01,2013-03-08 21:02:00,
2013-03-09 11:04:00,57.4,42.8,29.90,WNW,284,6.0,14.0,58,0.00,,BKN050,0.09,VWS V14.01,2013-03-08 21:04:00,
2013-03-09 11:05:00,57.5,42.8,29.90,West,272,8.0,11.0,58,0.00,,BKN050,0.09,VWS V14.01,2013-03-08 21:05:00,
2013-03-09 11:06:00,57.5,42.4,29.90,WNW,282,7.0,11.0,57,0.00,,BKN050,0.09,VWS V14.01,2013-03-08 21:06:00,
2013-03-09 11:07:00,60.5,41.8,29.90,West,269,5.0,10.0,50,0.00,,SCT180,0.09,VWS V14.01,2013-03-08 21:07:00,
2013-03-09 11:08:00,57.2,42.1,29.90,West,261,4.0,10.0,57,0.00,,BKN050,0.09,VWS V14.01,2013-03-08 21:08:00,
2013-03-09 11:09:00,57.3,42.7,29.90,WSW,242,7.0,12.0,58,0.00,,BKN050,0.09,VWS V14.01,2013-03-08 21:09:00,
2013-03-09 11:10:00,57.4,42.3,29.91,WNW,284,5.0,11.0,57,0.00,,BKN050,0.09,VWS V14.01,2013-03-08 21:10:00,
2013-03-09 11:11:00,57.4,42.8,29.91,WNW,299,6.0,11.0,58,0.00,,BKN050,0.09,VWS V14.01,2013-03-08 21:11:00,
2013-03-09 11:12:00,59.8,42.2,29.90,NW,308,2.0,6.0,52,0.00,,SCT180,0.09,VWS V14.01,2013-03-08 21:12:00,
2013-03-09 11:13:00,57.3,42.2,29.91,WSW,252,5.0,12.0,57,0.00,,BKN050,0.09,VWS V14.01,2013-03-08 21:13:00,
2013-03-09 11:14:00,57.3,42.2,29.91,West,259,10.0,10.0,57,0.00,,BKN050,0.09,VWS V14.01,2013-03-08 21:14:00,
2013-03-09 11:15:00,57.2,42.1,29.91,NW,304,4.0,14.0,57,0.00,,BKN050,0.09,VWS V14.01,2013-03-08 21:15:00,
2013-03-09 11:16:00,57.3,42.7,29.91,WSW,238,7.0,10.0,58,0.00,,BKN050,0.09,VWS V14.01,2013-03-08 21:16:00,
2013-03-09 11:17:00,59.7,42.1,29.90,West,279,5.0,10.0,52,0.00,,SCT180,0.09,VWS V14.01,2013-03-08 21:17:00,
2013-03-09 11:18:00,57.4,42.3,29.91,West,273,12.0,16.0,57,0.00,,BKN050,0.09,VWS V14.01,2013-03-08 21:18:00,
2013-03-09 11:19:00,57.3,42.2,29.91,West,270,10.0,12.0,57,0.00,,BKN050,0.09,VWS V14.01,2013-03-08 21:19:00,
2013-03-09 11:20:00,57.1,42.5,29.91,NW,321,5.0,12.0,58,0.00,,BKN050,0.09,VWS V14.01,2013-03-08 21:20:00,
2013-03-09 11:21:00,57.1,42.0,29.91,West,267,4.0,16.0,57,0.00,,BKN050,0.09,VWS V14.01,2013-03-08 21:21:00,
2013-03-09 11:22:00,59.4,41.8,29.90,WSW,238,9.0,12.0,52,0.00,,SCT180,0.09,VWS V14.01,2013-03-08 21:22:00,
2013-03-09 11:23:00,57.1,42.5,29.91,West,261,8.0,15.0,58,0.00,,BKN050,0.09,VWS V14.01,2013-03-08 21:23:00,
2013-03-09 11:24:00,57.1,42.0,29.91,West,281,6.0,14.0,57,0.00,,BKN050,0.09,VWS V14.01,2013-03-08 21:24:00,
2013-03-09 11:25:00,57.1,42.5,29.91,WSW,252,6.0,9.0,58,0.00,,BKN050,0.09,VWS V14.01,2013-03-08 21:25:00,
2013-03-09 11:26:00,57.1,42.5,29.91,NW,304,11.0,11.0,58,0.00,,BKN050,0.09,VWS V14.01,2013-03-08 21:26:00,
2013-03-09 11:27:00,59.4,42.3,29.90,West,270,4.0,9.0,53,0.00,,SCT180,0.09,VWS V14.01,2013-03-08 21:27:00,
2013-03-09 11:29:00,57.4,42.8,29.91,NNW,329,6.0,10.0,58,0.00,,BKN050,0.09,VWS V14.01,2013-03-08 21:29:00,
2013-03-09 11:30:00,57.5,42.8,29.91,West,280,6.0,6.0,58,0.00,,BKN050,0.09,VWS V14.01,2013-03-08 21:30:00,
2013-03-09 11:31:00,57.6,43.0,29.91,WSW,254,13.0,14.0,58,0.00,,BKN050,0.09,VWS V14.01,2013-03-08 21:31:00,
2013-03-09 11:32:00,59.4,42.3,29.90,West,275,5.0,8.0,53,0.00,,SCT180,0.09,VWS V14.01,2013-03-08 21:32:00,
2013-03-09 11:34:00,57.1,42.0,29.91,WNW,284,8.0,16.0,57,0.00,,BKN050,0.09,VWS V14.01,2013-03-08 21:34:00,
2013-03-09 11:35:00,56.8,42.2,29.91,NW,313,9.0,12.0,58,0.00,,BKN050,0.09,VWS V14.01,2013-03-08 21:35:00,
2013-03-09 11:36:00,56.6,42.0,29.91,West,277,5.0,11.0,58,0.00,,BKN050,0.09,VWS V14.01,2013-03-08 21:36:00,
2013-03-09 11:37:00,59.1,42.0,29.90,WSW,257,6.0,7.0,53,0.00,,SCT180,0.09,VWS V14.01,2013-03-08 21:37:00,
2013-03-09 11:38:00,56.4,42.7,29.91,NNW,347,5.0,13.0,60,0.00,,BKN050,0.09,VWS V14.01,2013-03-08 21:38:00,
2013-03-09 11:39:00,56.5,42.8,29.91,West,275,3.0,6.0,60,0.00,,BKN050,0.09,VWS V14.01,2013-03-08 21:39:00,
2013-03-09 11:40:00,56.7,43.4,29.91,WNW,290,4.0,7.0,61,0.00,,BKN050,0.09,VWS V14.01,2013-03-08 21:40:00,
2013-03-09 11:41:00,56.9,43.6,29.92,WNW,288,6.0,6.0,61,0.00,,BKN050,0.09,VWS V14.01,2013-03-08 21:41:00,
2013-03-09 11:42:00,58.8,41.7,29.90,WSW,244,5.0,9.0,53,0.00,,SCT180,0.09,VWS V14.01,2013-03-08 21:42:00,
2013-03-09 11:43:00,56.9,42.7,29.92,WNW,284,6.0,15.0,59,0.00,,BKN050,0.09,VWS V14.01,2013-03-08 21:43:00,
2013-03-09 11:44:00,56.8,43.1,29.92,North,5,4.0,9.0,60,0.00,,BKN050,0.09,VWS V14.01,2013-03-08 21:44:00,
2013-03-09 11:46:00,56.7,43.0,29.92,WNW,290,6.0,10.0,60,0.00,,BKN050,0.09,VWS V14.01,2013-03-08 21:46:00,
2013-03-09 11:47:00,59.3,42.2,29.90,WNW,296,3.0,6.0,53,0.00,,SCT180,0.09,VWS V14.01,2013-03-08 21:47:00,
2013-03-09 11:49:00,56.3,42.2,29.92,NNW,336,8.0,11.0,59,0.00,,BKN050,0.09,VWS V14.01,2013-03-08 21:49:00,
2013-03-09 11:50:00,56.2,42.1,29.92,WNW,302,4.0,11.0,59,0.00,,BKN050,0.09,VWS V14.01,2013-03-08 21:50:00,
2013-03-09 11:51:00,56.2,42.5,29.92,West,260,6.0,7.0,60,0.00,,BKN050,0.09,VWS V14.01,2013-03-08 21:51:00,
2013-03-09 11:52:00,59.0,41.9,29.90,WNW,300,10.0,14.0,53,0.00,,SCT180,0.09,VWS V14.01,2013-03-08 21:52:00,
2013-03-09 11:53:00,56.5,43.2,29.92,West,273,6.0,13.0,61,0.00,,BKN050,0.09,VWS V14.01,2013-03-08 21:53:00,
2013-03-09 11:54:00,56.6,43.3,29.92,West,263,13.0,13.0,61,0.00,,BKN050,0.09,VWS V14.01,2013-03-08 21:54:00,
2013-03-09 11:56:00,56.4,43.1,29.92,WNW,283,5.0,9.0,61,0.00,,BKN050,0.09,VWS V14.01,2013-03-08 21:56:00,
2013-03-09 11:57:00,58.0,41.9,29.90,West,260,5.0,16.0,55,0.00,,SCT180,0.09,VWS V14.01,2013-03-08 21:57:00,
2013-03-09 11:58:00,56.5,43.2,29.92,West,275,5.0,10.0,61,0.00,,BKN050,0.09,VWS V14.01,2013-03-08 21:58:00,
2013-03-09 11:59:00,56.5,43.2,29.92,WNW,286,4.0,10.0,61,0.00,,BKN050,0.09,VWS V14.01,2013-03-08 21:59:00,
2013-03-09 12:00:00,56.4,42.7,29.92,WSW,238,8.0,11.0,60,0.00,,BKN050,0.09,VWS V14.01,2013-03-08 22:00:00,
2013-03-09 12:01:00,56.3,43.0,29.92,WSW,248,10.0,10.0,61,0.00,,BKN050,0.09,VWS V14.01,2013-03-08 22:01:00,
2013-03-09 12:02:00,57.3,42.2,29.90,WNW,287,4.0,7.0,57,0.00,,SCT030,0.09,VWS V14.01,2013-03-08 22:02:00,
2013-03-09 12:03:00,56.0,42.8,29.92,WSW,257,4.0,14.0,61,0.00,,BKN050,0.09,VWS V14.01,2013-03-08 22:03:00,
2013-03-09 12:04:00,55.8,42.6,29.92,West,263,13.0,13.0,61,0.00,,BKN050,0.09,VWS V14.01,2013-03-08 22:04:00,
2013-03-09 12:05:00,55.7,42.5,29.92,WSW,257,8.0,13.0,61,0.00,,BKN050,0.09,VWS V14.01,2013-03-08 22:05:00,
2013-03-09 12:06:00,55.6,42.8,29.92,NW,311,8.0,12.0,62,0.00,,BKN050,0.09,VWS V14.01,2013-03-08 22:06:00,
2013-03-09 12:07:00,57.2,42.6,29.90,NW,313,4.0,7.0,58,0.00,,SCT030,0.09,VWS V14.01,2013-03-08 22:07:00,
2013-03-09 12:09:00,55.7,42.9,29.92,West,275,11.0,13.0,62,0.00,,BKN050,0.09,VWS V14.01,2013-03-08 22:09:00,
2013-03-09 12:10:00,55.7,42.9,29.92,West,265,6.0,18.0,62,0.00,,BKN050,0.09,VWS V14.01,2013-03-08 22:10:00,
2013-03-09 12:11:00,55.7,42.9,29.92,West,269,8.0,12.0,62,0.00,,BKN050,0.09,VWS V14.01,2013-03-08 22:11:00,
2013-03-09 12:12:00,57.3,42.2,29.91,WSW,252,7.0,9.0,57,0.00,,SCT030,0.09,VWS V14.01,2013-03-08 22:12:00,
2013-03-09 12:13:00,55.7,43.3,29.92,WSW,250,13.0,14.0,63,0.00,,BKN050,0.09,VWS V14.01,2013-03-08 22:13:00,
2013-03-09 12:14:00,55.6,42.8,29.93,West,265,6.0,13.0,62,0.00,,BKN050,0.09,VWS V14.01,2013-03-08 22:14:00,
2013-03-09 12:15:00,55.4,42.6,29.93,WNW,295,7.0,10.0,62,0.00,,BKN050,0.09,VWS V14.01,2013-03-08 22:15:00,
2013-03-09 12:16:00,55.2,42.8,29.93,NNW,327,10.0,11.0,63,0.00,,BKN050,0.09,VWS V14.01,2013-03-08 22:16:00,
2013-03-09 12:17:00,57.3,42.2,29.91,West,271,8.0,12.0,57,0.00,,SCT030,0.09,VWS V14.01,2013-03-08 22:17:00,
2013-03-09 12:18:00,55.0,42.7,29.93,WSW,254,11.0,13.0,63,0.00,,BKN050,0.09,VWS V14.01,2013-03-08 22:18:00,
2013-03-09 12:19:00,54.9,42.6,29.93,WSW,250,9.0,14.0,63,0.00,,BKN050,0.09,VWS V14.01,2013-03-08 22:19:00,
2013-03-09 12:20:00,54.8,42.5,29.93,NW,319,9.0,11.0,63,0.00,,BKN050,0.09,VWS V14.01,2013-03-08 22:20:00,
2013-03-09 12:21:00,54.7,42.4,29.93,NW,320,7.0,12.0,63,0.00,,BKN050,0.09,VWS V14.01,2013-03-08 22:21:00,
2013-03-09 12:22:00,57.1,42.0,29.91,West,265,6.0,14.0,57,0.00,,SCT030,0.09,VWS V14.01,2013-03-08 22:22:00,
2013-03-09 12:23:00,54.7,42.4,29.93,WSW,250,7.0,12.0,63,0.00,,BKN050,0.09,VWS V14.01,2013-03-08 22:23:00,
2013-03-09 12:24:00,54.7,42.8,29.93,West,271,8.0,9.0,64,0.00,,BKN050,0.09,VWS V14.01,2013-03-08 22:24:00,
2013-03-09 12:25:00,54.8,42.9,29.93,WNW,298,4.0,8.0,64,0.00,,BKN050,0.09,VWS V14.01,2013-03-08 22:25:00,
2013-03-09 12:26:00,54.9,43.0,29.93,WSW,252,4.0,5.0,64,0.00,,BKN050,0.09,VWS V14.01,2013-03-08 22:26:00,
2013-03-09 12:27:00,57.3,42.7,29.91,NNW,336,6.0,8.0,58,0.00,,SCT030,0.09,VWS V14.01,2013-03-08 22:27:00,
2013-03-09 12:28:00,54.8,42.9,29.93,WSW,244,9.0,9.0,64,0.00,,BKN050,0.09,VWS V14.01,2013-03-08 22:28:00,
2013-03-09 12:29:00,54.7,43.2,29.93,West,279,5.0,11.0,65,0.00,,BKN050,0.09,VWS V14.01,2013-03-08 22:29:00,
2013-03-09 12:30:00,54.8,43.7,29.93,NW,316,8.0,9.0,66,0.00,,BKN050,0.09,VWS V14.01,2013-03-08 22:30:00,
2013-03-09 12:31:00,54.9,43.0,29.93,WNW,285,4.0,9.0,64,0.00,,BKN050,0.09,VWS V14.01,2013-03-08 22:31:00,
2013-03-09 12:32:00,57.3,42.2,29.91,West,276,11.0,16.0,57,0.00,,SCT030,0.09,VWS V14.01,2013-03-08 22:32:00,
2013-03-09 12:33:00,55.2,43.2,29.93,NNW,333,4.0,12.0,64,0.00,,BKN050,0.09,VWS V14.01,2013-03-08 22:33:00,
2013-03-09 12:34:00,55.2,43.7,29.93,WSW,250,3.0,6.0,65,0.00,,BKN050,0.09,VWS V14.01,2013-03-08 22:34:00,
2013-03-09 12:35:00,55.2,43.7,29.93,SW,232,4.0,9.0,65,0.00,,BKN050,0.09,VWS V14.01,2013-03-08 22:35:00,
2013-03-09 12:36:00,55.2,43.2,29.93,West,269,3.0,7.0,64,0.00,,BKN050,0.09,VWS V14.01,2013-03-08 22:36:00,
2013-03-09 12:37:00,56.4,42.7,29.91,WNW,290,5.0,6.0,60,0.00,,SCT030,0.09,VWS V14.01,2013-03-08 22:37:00,
2013-03-09 12:38:00,55.2,43.7,29.93,WNW,294,10.0,12.0,65,0.00,,BKN050,0.09,VWS V14.01,2013-03-08 22:38:00,
2013-03-09 12:39:00,55.3,43.8,29.94,NNW,342,8.0,11.0,65,0.00,,BKN050,0.09,VWS V14.01,2013-03-08 22:39:00,
2013-03-09 12:40:00,55.1,43.2,29.94,NW,306,3.0,8.0,64,0.00,,BKN050,0.09,VWS V14.01,2013-03-08 22:40:00,
2013-03-09 12:41:00,55.0,43.5,29.94,WNW,284,11.0,11.0,65,0.00,,BKN050,0.09,VWS V14.01,2013-03-08 22:41:00,
2013-03-09 12:42:00,56.8,43.1,29.92,WNW,290,4.0,6.0,60,0.00,,SCT030,0.09,VWS V14.01,2013-03-08 22:42:00,
2013-03-09 12:43:00,54.8,42.9,29.93,WNW,294,4.0,13.0,64,0.00,,BKN050,0.09,VWS V14.01,2013-03-08 22:43:00,
2013-03-09 12:44:00,54.5,43.0,29.94,West,271,4.0,14.0,65,0.00,,BKN050,0.09,VWS V14.01,2013-03-08 22:44:00,
2013-03-09 12:45:00,54.5,43.0,29.94,North,11,8.0,16.0,65,0.00,,BKN050,0.09,VWS V14.01,2013-03-08 22:45:00,
2013-03-09 12:46:00,54.4,42.9,29.94,NW,316,9.0,13.0,65,0.00,,BKN050,0.09,VWS V14.01,2013-03-08 22:46:00,
2013-03-09 12:47:00,56.3,42.2,29.92,NNE,13,8.0,11.0,59,0.00,,SCT030,0.09,VWS V14.01,2013-03-08 22:47:00,
2013-03-09 12:48:00,54.5,43.0,29.94,NW,321,5.0,14.0,65,0.00,,BKN050,0.09,VWS V14.01,2013-03-08 22:48:00,
2013-03-09 12:49:00,54.6,42.7,29.94,NW,325,6.0,14.0,64,0.00,,BKN050,0.09,VWS V14.01,2013-03-08 22:49:00,
2013-03-09 12:50:00,54.6,42.7,29.94,NW,315,10.0,12.0,64,0.00,,BKN050,0.09,VWS V14.01,2013-03-08 22:50:00,
2013-03-09 12:51:00,54.6,42.7,29.94,NW,315,4.0,10.0,64,0.00,,BKN050,0.09,VWS V14.01,2013-03-08 22:51:00,
2013-03-09 12:52:00,56.6,43.3,29.92,WSW,254,8.0,8.0,61,0.00,,SCT030,0.09,VWS V14.01,2013-03-08 22:52:00,
2013-03-09 12:53:00,54.5,42.6,29.94,WNW,286,3.0,8.0,64,0.00,,BKN050,0.09,VWS V14.01,2013-03-08 22:53:00,
2013-03-09 12:54:00,54.5,43.0,29.94,WNW,302,7.0,14.0,65,0.00,,BKN050,0.09,VWS V14.01,2013-03-08 22:54:00,
2013-03-09 12:55:00,54.5,43.0,29.94,West,269,9.0,15.0,65,0.00,,BKN050,0.09,VWS V14.01,2013-03-08 22:55:00,
2013-03-09 12:56:00,54.6,43.1,29.94,West,280,5.0,12.0,65,0.00,,BKN050,0.09,VWS V14.01,2013-03-08 22:56:00,
2013-03-09 12:57:00,56.5,43.2,29.92,West,278,6.0,6.0,61,0.00,,SCT030,0.09,VWS V14.01,2013-03-08 22:57:00,
2013-03-09 12:58:00,54.5,43.0,29.94,WSW,254,3.0,12.0,65,0.00,,BKN050,0.09,VWS V14.01,2013-03-08 22:58:00,
2013-03-09 12:59:00,54.6,43.1,29.94,WSW,240,4.0,9.0,65,0.00,,BKN050,0.09,VWS V14.01,2013-03-08 22:59:00,
2013-03-09 13:00:00,54.6,43.1,29.94,West,261,7.0,7.0,65,0.00,,BKN050,0.09,VWS V14.01,2013-03-08 23:00:00,
2013-03-09 13:01:00,54.6,43.1,29.94,West,274,5.0,11.0,65,0.00,,BKN050,0.09,VWS V14.01,2013-03-08 23:01:00,
2013-03-09 13:02:00,55.9,42.7,29.92,West,266,5.0,8.0,61,0.00,,SCT030,0.09,VWS V14.01,2013-03-08 23:02:00,
2013-03-09 13:03:00,54.8,43.7,29.94,WNW,290,6.0,12.0,66,0.00,,BKN050,0.09,VWS V14.01,2013-03-08 23:03:00,
2013-03-09 13:04:00,54.8,43.3,29.94,NW,318,2.0,6.0,65,0.00,,BKN050,0.09,VWS V14.01,2013-03-08 23:04:00,
2013-03-09 13:05:00,55.0,43.5,29.94,NNW,331,6.0,8.0,65,0.00,,BKN050,0.09,VWS V14.01,2013-03-08 23:05:00,
2013-03-09 13:06:00,55.0,43.1,29.94,West,277,10.0,10.0,64,0.00,,BKN050,0.09,VWS V14.01,2013-03-08 23:06:00,
2013-03-09 13:07:00,55.7,42.9,29.92,WSW,250,9.0,10.0,62,0.00,,SCT030,0.09,VWS V14.01,2013-03-08 23:07:00,
2013-03-09 13:08:00,54.7,43.2,29.94,WNW,289,3.0,11.0,65,0.00,,BKN050,0.09,VWS V14.01,2013-03-08 23:08:00,
2013-03-09 13:09:00,54.6,43.1,29.94,NW,307,7.0,10.0,65,0.00,,BKN050,0.09,VWS V14.01,2013-03-08 23:09:00,
2013-03-09 13:10:00,54.6,43.1,29.94,NW,315,7.0,11.0,65,0.00,,BKN050,0.09,VWS V14.01,2013-03-08 23:10:00,
2013-03-09 13:11:00,54.5,43.0,29.94,WNW,292,6.0,14.0,65,0.00,,BKN050,0.09,VWS V14.01,2013-03-08 23:11:00,
2013-03-09 13:12:00,55.7,43.3,29.93,West,262,6.0,13.0,63,0.00,,SCT030,0.09,VWS V14.01,2013-03-08 23:12:00,
2013-03-09 13:13:00,54.1,42.6,29.94,SW,231,9.0,11.0,65,0.00,,BKN050,0.09,VWS V14.01,2013-03-08 23:13:00,
2013-03-09 13:14:00,54.0,42.5,29.94,NNW,338,5.0,13.0,65,0.00,,BKN050,0.09,VWS V14.01,2013-03-08 23:14:00,
2013-03-09 13:15:00,53.9,42.8,29.94,West,270,8.0,10.0,66,0.00,,BKN050,0.09,VWS V14.01,2013-03-08 23:15:00,
2013-03-09 13:16:00,53.9,42.8,29.94,NNW,338,3.0,8.0,66,0.00,,BKN050,0.09,VWS V14.01,2013-03-08 23:16:00,
2013-03-09 13:17:00,55.0,42.7,29.93,NW,326,9.0,14.0,63,0.00,,SCT030,0.09,VWS V14.01,2013-03-08 23:17:00,
2013-03-09 13:18:00,53.7,42.6,29.94,NNW,338,7.0,13.0,66,0.00,,BKN050,0.09,VWS V14.01,2013-03-08 23:18:00,
2013-03-09 13:20:00,53.5,42.4,29.94,WNW,286,8.0,17.0,66,0.00,,BKN050,0.09,VWS V14.01,2013-03-08 23:20:00,
2013-03-09 13:21:00,53.4,42.3,29.94,West,275,6.0,12.0,66,0.00,,BKN050,0.09,VWS V14.01,2013-03-08 23:21:00,
2013-03-09 13:22:00,54.8,42.9,29.93,NW,319,7.0,9.0,64,0.00,,SCT030,0.09,VWS V14.01,2013-03-08 23:22:00,
2013-03-09 13:23:00,53.2,42.5,29.94,West,273,3.0,16.0,67,0.00,,BKN050,0.09,VWS V14.01,2013-03-08 23:23:00,
2013-03-09 13:24:00,53.2,42.5,29.94,West,259,10.0,18.0,67,0.00,,BKN050,0.09,VWS V14.01,2013-03-08 23:24:00,
2013-03-09 13:25:00,53.2,42.5,29.94,WSW,239,7.0,10.0,67,0.00,,BKN050,0.09,VWS V14.01,2013-03-08 23:25:00,
2013-03-09 13:26:00,53.1,42.5,29.94,West,265,8.0,12.0,67,0.00,,BKN050,0.09,VWS V14.01,2013-03-08 23:26:00,
2013-03-09 13:27:00,54.7,43.2,29.93,WSW,250,6.0,11.0,65,0.00,,SCT030,0.09,VWS V14.01,2013-03-08 23:27:00,
2013-03-09 13:28:00,52.9,42.6,29.94,WNW,286,1.0,10.0,68,0.00,,BKN050,0.09,VWS V14.01,2013-03-08 23:28:00,
2013-03-09 13:29:00,52.8,42.5,29.95,West,279,12.0,12.0,68,0.00,,BKN050,0.09,VWS V14.01,2013-03-08 23:29:00,
2013-03-09 13:30:00,52.7,42.5,29.95,WSW,254,6.0,12.0,68,0.00,,BKN050,0.09,VWS V14.01,2013-03-08 23:30:00,
2013-03-09 13:31:00,52.6,42.3,29.95,NNW,329,7.0,13.0,68,0.00,,BKN050,0.09,VWS V14.01,2013-03-08 23:31:00,
2013-03-09 13:32:00,55.2,43.7,29.93,West,260,4.0,6.0,65,0.00,,SCT030,0.09,VWS V14.01,2013-03-08 23:32:00,
2013-03-09 13:33:00,52.4,42.5,29.94,NNW,327,13.0,13.0,69,0.00,,BKN050,0.09,VWS V14.01,2013-03-08 23:33:00,
2013-03-09 13:34:00,52.3,42.5,29.94,West,260,9.0,14.0,69,0.00,,BKN050,0.09,VWS V14.01,2013-03-08 23:34:00,
2013-03-09 13:35:00,52.2,42.7,29.95,WSW,238,5.0,11.0,70,0.00,,BKN050,0.09,VWS V14.01,2013-03-08 23:35:00,
2013-03-09 13:36:00,52.1,42.6,29.95,WSW,246,9.0,9.0,70,0.00,,BKN050,0.09,VWS V14.01,2013-03-08 23:36:00,
2013-03-09 13:37:00,55.3,43.8,29.94,WNW,296,6.0,10.0,65,0.00,,SCT030,0.09,VWS V14.01,2013-03-08 23:37:00,
2013-03-09 13:38:00,52.0,42.5,29.95,WNW,289,4.0,9.0,70,0.00,,BKN050,0.09,VWS V14.01,2013-03-08 23:38:00,
2013-03-09 13:39:00,52.0,42.9,29.94,NW,311,2.0,10.0,71,0.00,,BKN050,0.09,VWS V14.01,2013-03-08 23:39:00,
2013-03-09 13:40:00,52.1,43.0,29.94,NW,322,4.0,5.0,71,0.00,,BKN050,0.09,VWS V14.01,2013-03-08 23:40:00,
2013-03-09 13:41:00,52.2,43.1,29.94,WNW,285,6.0,8.0,71,0.00,,BKN050,0.09,VWS V14.01,2013-03-08 23:41:00,
2013-03-09 13:42:00,54.6,42.7,29.93,NW,313,10.0,13.0,64,0.00,,SCT030,0.09,VWS V14.01,2013-03-08 23:42:00,
2013-03-09 13:43:00,52.3,43.2,29.95,WSW,254,8.0,10.0,71,0.00,,BKN050,0.09,VWS V14.01,2013-03-08 23:43:00,
2013-03-09 13:44:00,52.2,42.7,29.95,NNW,334,3.0,8.0,70,0.00,,BKN050,0.09,VWS V14.01,2013-03-08 23:44:00,
2013-03-09 13:45:00,52.2,42.7,29.94,NNW,333,7.0,8.0,70,0.00,,BKN050,0.09,VWS V14.01,2013-03-08 23:45:00,
2013-03-09 13:46:00,52.2,43.1,29.95,NW,319,9.0,11.0,71,0.00,,BKN050,0.09,VWS V14.01,2013-03-08 23:46:00,
2013-03-09 13:47:00,54.5,43.0,29.94,West,276,8.0,9.0,65,0.00,,SCT030,0.09,VWS V14.01,2013-03-08 23:47:00,
2013-03-09 13:48:00,52.3,43.2,29.95,WNW,292,3.0,9.0,71,0.00,,BKN050,0.09,VWS V14.01,2013-03-08 23:48:00,
2013-03-09 13:49:00,52.3,42.8,29.95,NW,323,4.0,7.0,70,0.00,,BKN050,0.09,VWS V14.01,2013-03-08 23:49:00,
2013-03-09 13:50:00,52.4,42.9,29.94,West,270,5.0,7.0,70,0.00,,BKN050,0.09,VWS V14.01,2013-03-08 23:50:00,
2013-03-09 13:51:00,52.4,42.9,29.95,WSW,256,7.0,8.0,70,0.00,,BKN050,0.09,VWS V14.01,2013-03-08 23:51:00,
2013-03-09 13:52:00,54.5,42.6,29.94,WNW,297,12.0,12.0,64,0.00,,SCT030,0.09,VWS V14.01,2013-03-08 23:52:00,
2013-03-09 13:53:00,52.4,42.5,29.95,NW,323,5.0,11.0,69,0.00,,BKN050,0.09,VWS V14.01,2013-03-08 23:53:00,
2013-03-09 13:54:00,52.4,42.9,29.95,WNW,294,6.0,11.0,70,0.00,,BKN050,0.09,VWS V14.01,2013-03-08 23:54:00,
2013-03-09 13:55:00,52.3,42.5,29.95,WSW,250,5.0,10.0,69,0.00,,BKN050,0.09,VWS V14.01,2013-03-08 23:55:00,
2013-03-09 13:56:00,52.3,42.8,29.95,West,277,3.0,8.0,70,0.00,,BKN050,0.09,VWS V14.01,2013-03-08 23:56:00,
2013-03-09 13:57:00,54.5,43.0,29.94,West,265,3.0,8.0,65,0.00,,SCT030,0.09,VWS V14.01,2013-03-08 23:57:00,
2013-03-09 13:58:00,52.4,42.5,29.95,West,264,2.0,5.0,69,0.00,,BKN050,0.09,VWS V14.01,2013-03-08 23:58:00,
2013-03-09 13:59:00,52.5,43.0,29.95,WNW,303,2.0,6.0,70,0.00,,BKN050,0.09,VWS V14.01,2013-03-08 23:59:00,
2013-03-09 14:00:00,52.6,42.7,29.95,WNW,296,8.0,8.0,69,0.00,,BKN050,0.09,VWS V14.01,2013-03-09 00:00:00,
2013-03-09 14:01:00,52.6,42.7,29.95,WSW,252,5.0,8.0,69,0.00,,BKN050,0.09,VWS V14.01,2013-03-09 00:01:00,
2013-03-09 14:02:00,54.8,43.3,29.94,NNW,346,3.0,6.0,65,0.00,,SCT030,0.09,VWS V14.01,2013-03-09 00:02:00,
2013-03-09 14:03:00,52.5,42.3,29.95,West,264,13.0,14.0,68,0.00,,BKN050,0.09,VWS V14.01,2013-03-09 00:03:00,
2013-03-09 14:04:00,52.4,42.2,29.95,West,281,8.0,13.0,68,0.00,,BKN050,0.09,VWS V14.01,2013-03-09 00:04:00,
2013-03-09 14:05:00,52.4,42.2,29.95,NNW,337,10.0,14.0,68,0.00,,BKN050,0.09,VWS V14.01,2013-03-09 00:05:00,
2013-03-09 14:06:00,52.4,42.2,29.95,West,268,5.0,12.0,68,0.00,,BKN050,0.09,VWS V14.01,2013-03-09 00:06:00,
2013-03-09 14:07:00,54.7,43.2,29.94,West,275,10.0,10.0,65,0.00,,SCT030,0.09,VWS V14.01,2013-03-09 00:07:00,
2013-03-09 14:08:00,52.2,42.3,29.96,NW,318,3.0,6.0,69,0.00,,BKN050,0.09,VWS V14.01,2013-03-09 00:08:00,
2013-03-09 14:09:00,52.3,42.5,29.95,WNW,302,2.0,3.0,69,0.00,,BKN050,0.09,VWS V14.01,2013-03-09 00:09:00,
2013-03-09 14:10:00,52.4,42.5,29.95,WNW,296,3.0,7.0,69,0.00,,BKN050,0.09,VWS V14.01,2013-03-09 00:10:00,
2013-03-09 14:11:00,52.5,42.6,29.96,NW,304,4.0,7.0,69,0.00,,BKN050,0.09,VWS V14.01,2013-03-09 00:11:00,
2013-03-09 14:12:00,54.1,42.6,29.94,WSW,253,9.0,13.0,65,0.00,,SCT030,0.09,VWS V14.01,2013-03-09 00:12:00,
2013-03-09 14:13:00,52.4,42.5,29.96,WNW,299,5.0,13.0,69,0.00,,BKN050,0.09,VWS V14.01,2013-03-09 00:13:00,
2013-03-09 14:14:00,52.3,42.5,29.96,WSW,257,6.0,14.0,69,0.00,,BKN050,0.09,VWS V14.01,2013-03-09 00:14:00,
2013-03-09 14:15:00,52.3,42.5,29.96,West,271,4.0,9.0,69,0.00,,BKN050,0.09,VWS V14.01,2013-03-09 00:15:00,
2013-03-09 14:16:00,52.2,42.3,29.96,NNW,345,3.0,12.0,69,0.00,,BKN050,0.09,VWS V14.01,2013-03-09 00:16:00,
2013-03-09 14:17:00,53.7,42.6,29.94,WSW,256,8.0,14.0,66,0.00,,SCT030,0.09,VWS V14.01,2013-03-09 00:17:00,
2013-03-09 14:18:00,52.2,42.7,29.96,NW,314,6.0,6.0,70,0.00,,BKN050,0.09,VWS V14.01,2013-03-09 00:18:00,
2013-03-09 14:19:00,52.1,42.6,29.96,West,262,4.0,6.0,70,0.00,,BKN050,0.09,VWS V14.01,2013-03-09 00:19:00,
2013-03-09 14:21:00,52.2,42.7,29.96,West,259,7.0,9.0,70,0.00,,BKN050,0.09,VWS V14.01,2013-03-09 00:21:00,
2013-03-09 14:22:00,53.2,42.5,29.94,West,265,10.0,10.0,67,0.00,,SCT030,0.09,VWS V14.01,2013-03-09 00:22:00,
2013-03-09 14:23:00,52.1,42.6,29.96,NW,319,7.0,13.0,70,0.00,,BKN050,0.09,VWS V14.01,2013-03-09 00:23:00,
2013-03-09 14:24:00,52.0,42.5,29.96,WNW,302,4.0,10.0,70,0.00,,BKN050,0.09,VWS V14.01,2013-03-09 00:24:00,
2013-03-09 14:25:00,51.9,42.4,29.96,WNW,289,4.0,8.0,70,0.00,,BKN050,0.09,VWS V14.01,2013-03-09 00:25:00,
2013-03-09 14:26:00,51.9,42.8,29.96,NNW,337,4.0,6.0,71,0.00,,BKN050,0.09,VWS V14.01,2013-03-09 00:26:00,
2013-03-09 14:27:00,52.9,42.6,29.94,NNW,328,10.0,10.0,68,0.00,,SCT030,0.09,VWS V14.01,2013-03-09 00:27:00,
2013-03-09 14:28:00,51.8,42.7,29.96,West,262,7.0,7.0,71,0.00,,BKN050,0.09,VWS V14.01,2013-03-09 00:28:00,
2013-03-09 14:30:00,51.7,42.6,29.97,WSW,252,7.0,11.0,71,0.00,,BKN050,0.09,VWS V14.01,2013-03-09 00:30:00,
2013-03-09 14:31:00,51.7,42.6,29.97,WNW,286,9.0,11.0,71,0.00,,BKN050,0.09,VWS V14.01,2013-03-09 00:31:00,
2013-03-09 14:32:00,52.4,42.5,29.94,West,280,8.0,14.0,69,0.00,,SCT030,0.09,VWS V14.01,2013-03-09 00:32:00,
2013-03-09 14:33:00,51.5,42.4,29.97,West,267,2.0,6.0,71,0.00,,BKN050,0.09,VWS V14.01,2013-03-09 00:33:00,
2013-03-09 14:34:00,51.4,42.3,29.97,NW,309,5.0,12.0,71,0.00,,BKN050,0.09,VWS V14.01,2013-03-09 00:34:00,
2013-03-09 14:35:00,51.4,42.7,29.97,West,279,6.0,6.0,72,0.00,,BKN050,0.09,VWS V14.01,2013-03-09 00:35:00,
2013-03-09 14:36:00,51.4,42.7,29.97,West,275,7.0,9.0,72,0.00,,BKN050,0.09,VWS V14.01,2013-03-09 00:36:00,
2013-03-09 14:37:00,52.0,42.9,29.94,NNW,328,10.0,10.0,71,0.00,,SCT030,0.09,VWS V14.01,2013-03-09 00:37:00,
2013-03-09 14:38:00,51.3,42.6,29.97,NNW,336,5.0,9.0,72,0.00,,BKN050,0.09,VWS V14.01,2013-03-09 00:38:00,
2013-03-09 14:39:00,51.2,42.5,29.97,WSW,244,7.0,11.0,72,0.00,,BKN050,0.09,VWS V14.01,2013-03-09 00:39:00,
2013-03-09 14:40:00,51.2,42.5,29.97,WNW,290,2.0,7.0,72,0.00,,BKN050,0.09,VWS V14.01,2013-03-09 00:40:00,
2013-03-09 14:41:00,51.1,42.4,29.97,West,269,6.0,10.0,72,0.00,,BKN050,0.09,VWS V14.01,2013-03-09 00:41:00,
2013-03-09 14:42:00,52.3,43.2,29.95,WSW,256,6.0,8.0,71,0.00,,SCT030,0.09,VWS V14.01,2013-03-09 00:42:00,
2013-03-09 14:43:00,51.0,42.7,29.97,West,275,4.0,5.0,73,0.00,,BKN050,0.09,VWS V14.01,2013-03-09 00:43:00,
2013-03-09 14:44:00,51.0,42.7,29.97,West,260,3.0,6.0,73,0.00,,BKN050,0.09,VWS V14.01,2013-03-09 00:44:00,
2013-03-09 14:45:00,50.9,42.6,29.97,WNW,284,5.0,10.0,73,0.00,,BKN050,0.09,VWS V14.01,2013-03-09 00:45:00,
2013-03-09 14:46:00,50.9,42.6,29.97,West,273,6.0,7.0,73,0.00,,BKN050,0.09,VWS V14.01,2013-03-09 00:46:00,
2013-03-09 14:47:00,52.3,43.2,29.95,NW,313,3.0,7.0,71,0.00,,SCT030,0.09,VWS V14.01,2013-03-09 00:47:00,
2013-03-09 14:48:00,50.8,42.5,29.97,West,264,1.0,7.0,73,0.00,,BKN050,0.09,VWS V14.01,2013-03-09 00:48:00,
2013-03-09 14:49:00,50.7,42.4,29.97,WNW,288,3.0,5.0,73,0.00,,BKN050,0.09,VWS V14.01,2013-03-09 00:49:00,
2013-03-09 14:50:00,50.6,42.3,29.97,West,278,8.0,9.0,73,0.00,,BKN050,0.09,VWS V14.01,2013-03-09 00:50:00,
2013-03-09 14:51:00,50.6,42.6,29.98,West,263,3.0,9.0,74,0.00,,BKN050,0.09,VWS V14.01,2013-03-09 00:51:00,
2013-03-09 14:52:00,52.4,42.5,29.95,NW,306,2.0,5.0,69,0.00,,SCT030,0.09,VWS V14.01,2013-03-09 00:52:00,
2013-03-09 14:53:00,50.5,42.5,29.98,NNW,329,7.0,10.0,74,0.00,,BKN050,0.09,VWS V14.01,2013-03-09 00:53:00,
2013-03-09 14:54:00,50.5,42.5,29.98,West,261,11.0,11.0,74,0.00,,BKN050,0.09,VWS V14.01,2013-03-09 00:54:00,
2013-03-09 14:55:00,50.5,42.5,29.98,WNW,297,4.0,12.0,74,0.00,,BKN050,0.09,VWS V14.01,2013-03-09 00:55:00,
2013-03-09 14:57:00,52.4,42.9,29.95,NW,323,2.0,3.0,70,0.00,,SCT030,0.09,VWS V14.01,2013-03-09 00:57:00,
2013-03-09 14:58:00,50.4,42.4,29.98,NNW,345,6.0,8.0,74,0.00,,BKN050,0.09,VWS V14.01,2013-03-09 00:58:00,
2013-03-09 14:59:00,50.3,42.3,29.98,WNW,290,4.0,6.0,74,0.00,,BKN050,0.09,VWS V14.01,2013-03-09 00:59:00,
2013-03-09 15:01:00,50.3,42.3,29.98,West,273,4.0,8.0,74,0.00,,BKN050,0.09,VWS V14.01,2013-03-09 01:01:00,
2013-03-09 15:02:00,52.4,42.2,29.95,West,263,5.0,13.0,68,0.00,,SCT030,0.09,VWS V14.01,2013-03-09 01:02:00,
2013-03-09 15:03:00,50.2,42.2,29.98,NW,325,5.0,6.0,74,0.00,,BKN050,0.09,VWS V14.01,2013-03-09 01:03:00,
2013-03-09 15:04:00,50.1,42.2,29.98,NNW,333,2.0,6.0,74,0.00,,BKN050,0.09,VWS V14.01,2013-03-09 01:04:00,
2013-03-09 15:05:00,50.1,42.2,29.98,West,267,5.0,6.0,74,0.00,,BKN050,0.09,VWS V14.01,2013-03-09 01:05:00,
2013-03-09 15:06:00,50.0,42.0,29.98,WNW,297,2.0,7.0,74,0.00,,BKN050,0.09,VWS V14.01,2013-03-09 01:06:00,
2013-03-09 15:07:00,52.2,42.3,29.95,WNW,302,2.0,3.0,69,0.00,,SCT030,0.09,VWS V14.01,2013-03-09 01:07:00,
2013-03-09 15:08:00,50.0,42.4,29.99,WNW,296,3.0,7.0,75,0.00,,BKN050,0.09,VWS V14.01,2013-03-09 01:08:00,
2013-03-09 15:09:00,49.9,42.3,29.99,West,261,4.0,11.0,75,0.00,,BKN050,0.09,VWS V14.01,2013-03-09 01:09:00,
2013-03-09 15:10:00,49.9,42.3,29.99,West,275,4.0,7.0,75,0.00,,BKN050,0.09,VWS V14.01,2013-03-09 01:10:00,
2013-03-09 15:11:00,49.9,42.3,29.99,West,262,9.0,12.0,75,0.00,,BKN050,0.09,VWS V14.01,2013-03-09 01:11:00,
2013-03-09 15:12:00,52.4,42.5,29.96,West,263,6.0,6.0,69,0.00,,SCT030,0.09,VWS V14.01,2013-03-09 01:12:00,
2013-03-09 15:13:00,49.8,42.2,29.99,NW,310,1.0,9.0,75,0.00,,BKN050,0.09,VWS V14.01,2013-03-09 01:13:00,
2013-03-09 15:14:00,49.8,42.2,29.99,West,276,4.0,4.0,75,0.00,,BKN050,0.09,VWS V14.01,2013-03-09 01:14:00,
2013-03-09 15:15:00,49.8,42.2,29.99,West,273,3.0,5.0,75,0.00,,BKN050,0.09,VWS V14.01,2013-03-09 01:15:00,
2013-03-09 15:16:00,49.8,42.2,29.99,WNW,294,3.0,6.0,75,0.00,,BKN050,0.09,VWS V14.01,2013-03-09 01:16:00,
2013-03-09 15:17:00,52.1,42.6,29.96,West,265,5.0,6.0,70,0.00,,SCT030,0.09,VWS V14.01,2013-03-09 01:17:00,
2013-03-09 15:18:00,49.7,42.1,30.00,WSW,248,6.0,9.0,75,0.00,,BKN050,0.09,VWS V14.01,2013-03-09 01:18:00,
2013-03-09 15:19:00,49.7,42.1,30.00,West,268,4.0,6.0,75,0.00,,BKN050,0.09,VWS V14.01,2013-03-09 01:19:00,
2013-03-09 15:20:00,49.7,42.1,30.00,WNW,294,3.0,8.0,75,0.00,,BKN050,0.09,VWS V14.01,2013-03-09 01:20:00,
2013-03-09 15:21:00,49.7,42.1,30.00,NW,314,2.0,6.0,75,0.00,,BKN050,0.09,VWS V14.01,2013-03-09 01:21:00,
2013-03-09 15:22:00,52.0,42.5,29.96,WNW,282,5.0,10.0,70,0.00,,SCT030,0.09,VWS V14.01,2013-03-09 01:22:00,
2013-03-09 15:23:00,49.6,42.4,30.00,West,265,9.0,11.0,76,0.00,,BKN050,0.09,VWS V14.01,2013-03-09 01:23:00,
2013-03-09 15:24:00,49.6,42.4,30.00,SW,236,5.0,8.0,76,0.00,,BKN050,0.09,VWS V14.01,2013-03-09 01:24:00,
2013-03-09 15:25:00,49.6,42.4,30.00,WSW,248,5.0,9.0,76,0.00,,BKN050,0.09,VWS V14.01,2013-03-09 01:25:00,
2013-03-09 15:26:00,49.6,42.4,30.00,West,275,5.0,7.0,76,0.00,,BKN050,0.09,VWS V14.01,2013-03-09 01:26:00,
2013-03-09 15:27:00,51.7,42.6,29.96,WSW,245,6.0,9.0,71,0.00,,SCT030,0.09,VWS V14.01,2013-03-09 01:27:00,
2013-03-09 15:28:00,49.6,42.4,30.00,WNW,301,7.0,7.0,76,0.00,,BKN050,0.09,VWS V14.01,2013-03-09 01:28:00,
2013-03-09 15:29:00,49.6,42.4,30.00,West,265,8.0,12.0,76,0.00,,BKN050,0.09,VWS V14.01,2013-03-09 01:29:00,
2013-03-09 15:30:00,49.6,42.4,30.00,West,267,2.0,9.0,76,0.00,,BKN050,0.09,VWS V14.01,2013-03-09 01:30:00,
2013-03-09 15:31:00,49.6,42.4,30.00,WNW,285,5.0,6.0,76,0.00,,BKN050,0.09,VWS V14.01,2013-03-09 01:31:00,
2013-03-09 15:32:00,51.5,42.4,29.97,NNW,344,5.0,5.0,71,0.00,,SCT030,0.09,VWS V14.01,2013-03-09 01:32:00,
2013-03-09 15:33:00,49.6,42.4,30.00,West,269,11.0,11.0,76,0.00,,BKN050,0.09,VWS V14.01,2013-03-09 01:33:00,
2013-03-09 15:34:00,49.6,42.4,30.00,WNW,290,3.0,12.0,76,0.00,,BKN050,0.09,VWS V14.01,2013-03-09 01:34:00,
2013-03-09 15:35:00,49.6,42.4,30.00,West,273,2.0,8.0,76,0.00,,BKN050,0.09,VWS V14.01,2013-03-09 01:35:00,
2013-03-09 15:36:00,49.6,42.4,30.00,NNW,331,3.0,5.0,76,0.00,,BKN050,0.09,VWS V14.01,2013-03-09 01:36:00,
2013-03-09 15:37:00,51.2,42.5,29.97,NW,312,2.0,7.0,72,0.00,,SCT030,0.09,VWS V14.01,2013-03-09 01:37:00,
2013-03-09 15:38:00,49.6,42.4,30.00,WSW,240,4.0,10.0,76,0.00,,BKN050,0.09,VWS V14.01,2013-03-09 01:38:00,
2013-03-09 15:39:00,49.6,42.4,30.00,NW,321,6.0,9.0,76,0.00,,BKN050,0.09,VWS V14.01,2013-03-09 01:39:00,
2013-03-09 15:40:00,49.6,42.4,30.00,West,271,4.0,9.0,76,0.00,,BKN050,0.09,VWS V14.01,2013-03-09 01:40:00,
2013-03-09 15:41:00,49.5,42.3,30.00,WSW,257,4.0,12.0,76,0.00,,BKN050,0.09,VWS V14.01,2013-03-09 01:41:00,
2013-03-09 15:42:00,51.0,42.7,29.97,WNW,303,5.0,5.0,73,0.00,,SCT030,0.09,VWS V14.01,2013-03-09 01:42:00,
2013-03-09 15:43:00,49.5,42.3,30.00,West,267,10.0,10.0,76,0.00,,BKN050,0.09,VWS V14.01,2013-03-09 01:43:00,
2013-03-09 15:44:00,49.5,42.3,30.00,WNW,284,3.0,10.0,76,0.00,,BKN050,0.09,VWS V14.01,2013-03-09 01:44:00,
2013-03-09 15:45:00,49.5,42.3,30.01,NW,325,5.0,6.0,76,0.00,,BKN050,0.09,VWS V14.01,2013-03-09 01:45:00,
2013-03-09 15:46:00,49.5,42.3,30.01,WNW,296,2.0,10.0,76,0.00,,BKN050,0.09,VWS V14.01,2013-03-09 01:46:00,
2013-03-09 15:47:00,50.7,42.4,29.97,West,264,2.0,2.0,73,0.00,,SCT030,0.09,VWS V14.01,2013-03-09 01:47:00,
2013-03-09 15:48:00,49.4,42.2,30.01,NW,314,5.0,8.0,76,0.00,,BKN050,0.09,VWS V14.01,2013-03-09 01:48:00,
2013-03-09 15:49:00,49.4,42.2,30.00,WNW,285,3.0,5.0,76,0.00,,BKN050,0.09,VWS V14.01,2013-03-09 01:49:00,
2013-03-09 15:50:00,49.4,42.5,30.01,WNW,292,2.0,4.0,77,0.00,,BKN050,0.09,VWS V14.01,2013-03-09 01:50:00,
2013-03-09 15:51:00,49.4,42.5,30.00,WSW,246,7.0,8.0,77,0.00,,BKN050,0.09,VWS V14.01,2013-03-09 01:51:00,
2013-03-09 15:52:00,50.5,42.5,29.98,WNW,288,3.0,7.0,74,0.00,,SCT030,0.09,VWS V14.01,2013-03-09 01:52:00,
2013-03-09 15:53:00,49.4,42.5,30.01,West,273,7.0,7.0,77,0.00,,BKN050,0.09,VWS V14.01,2013-03-09 01:53:00,
2013-03-09 15:54:00,49.4,42.5,30.01,West,265,3.0,8.0,77,0.00,,BKN050,0.09,VWS V14.01,2013-03-09 01:54:00,
2013-03-09 15:55:00,49.4,42.5,30.01,West,281,7.0,8.0,77,0.00,,BKN050,0.09,VWS V14.01,2013-03-09 01:55:00,
2013-03-09 15:56:00,49.4,42.5,30.00,WSW,253,6.0,7.0,77,0.00,,BKN050,0.09,VWS V14.01,2013-03-09 01:56:00,
2013-03-09 15:57:00,50.4,42.4,29.98,WNW,295,4.0,6.0,74,0.00,,SCT030,0.09,VWS V14.01,2013-03-09 01:57:00,
2013-03-09 15:58:00,49.4,42.5,30.01,NNW,333,6.0,9.0,77,0.00,,BKN050,0.09,VWS V14.01,2013-03-09 01:58:00,
2013-03-09 15:59:00,49.4,42.5,30.01,West,267,8.0,10.0,77,0.00,,BKN050,0.09,VWS V14.01,2013-03-09 01:59:00,
2013-03-09 16:00:00,49.4,42.5,30.01,NW,317,9.0,9.0,77,0.00,,BKN050,0.09,VWS V14.01,2013-03-09 02:00:00,
2013-03-09 16:01:00,49.4,42.5,30.01,WSW,244,7.0,11.0,77,0.00,,BKN050,0.09,VWS V14.01,2013-03-09 02:01:00,
2013-03-09 16:02:00,50.2,42.2,29.98,WNW,285,4.0,6.0,74,0.00,,SCT024,0.09,VWS V14.01,2013-03-09 02:02:00,
2013-03-09 16:03:00,49.4,42.5,30.01,NW,318,4.0,5.0,77,0.00,,BKN050,0.09,VWS V14.01,2013-03-09 02:03:00,
2013-03-09 16:04:00,49.4,42.5,30.01,WSW,258,5.0,9.0,77,0.00,,BKN050,0.09,VWS V14.01,2013-03-09 02:04:00,
2013-03-09 16:05:00,49.3,42.4,30.01,West,269,6.0,16.0,77,0.00,,BKN050,0.09,VWS V14.01,2013-03-09 02:05:00,
2013-03-09 16:06:00,49.3,42.4,30.01,WNW,285,4.0,8.0,77,0.00,,BKN050,0.09,VWS V14.01,2013-03-09 02:06:00,
2013-03-09 16:07:00,49.9,42.3,29.99,West,266,5.0,5.0,75,0.00,,SCT024,0.09,VWS V14.01,2013-03-09 02:07:00,
2013-03-09 16:08:00,49.3,42.4,30.01,West,273,3.0,5.0,77,0.00,,BKN050,0.09,VWS V14.01,2013-03-09 02:08:00,
2013-03-09 16:09:00,49.3,42.7,30.01,WNW,288,3.0,3.0,78,0.00,,BKN050,0.09,VWS V14.01,2013-03-09 02:09:00,
2013-03-09 16:10:00,49.2,42.6,30.01,West,267,3.0,8.0,78,0.00,,BKN050,0.09,VWS V14.01,2013-03-09 02:10:00,
2013-03-09 16:11:00,49.2,42.6,30.01,WNW,289,2.0,5.0,78,0.00,,BKN050,0.09,VWS V14.01,2013-03-09 02:11:00,
2013-03-09 16:12:00,49.8,42.2,29.99,NW,310,1.0,2.0,75,0.00,,SCT024,0.09,VWS V14.01,2013-03-09 02:12:00,
2013-03-09 16:13:00,49.2,42.6,30.01,WNW,293,1.0,2.0,78,0.00,,BKN050,0.09,VWS V14.01,2013-03-09 02:13:00,
2013-03-09 16:14:00,49.2,42.6,30.01,WNW,292,3.0,6.0,78,0.00,,BKN050,0.09,VWS V14.01,2013-03-09 02:14:00,
2013-03-09 16:15:00,49.2,42.6,30.01,NW,311,2.0,4.0,78,0.00,,BKN050,0.09,VWS V14.01,2013-03-09 02:15:00,
2013-03-09 16:16:00,49.1,42.2,30.02,WNW,292,3.0,4.0,77,0.00,,BKN050,0.09,VWS V14.01,2013-03-09 02:16:00,
2013-03-09 16:17:00,49.7,42.1,30.00,WNW,290,6.0,6.0,75,0.00,,SCT024,0.09,VWS V14.01,2013-03-09 02:17:00,
2013-03-09 16:18:00,49.1,42.5,30.02,West,268,6.0,6.0,78,0.00,,BKN050,0.09,VWS V14.01,2013-03-09 02:18:00,
2013-03-09 16:19:00,49.1,42.5,30.02,West,280,5.0,7.0,78,0.00,,BKN050,0.09,VWS V14.01,2013-03-09 02:19:00,
2013-03-09 16:20:00,49.1,42.5,30.02,West,263,4.0,6.0,78,0.00,,BKN050,0.09,VWS V14.01,2013-03-09 02:20:00,
2013-03-09 16:21:00,49.1,42.5,30.02,West,262,2.0,4.0,78,0.00,,BKN050,0.09,VWS V14.01,2013-03-09 02:21:00,
2013-03-09 16:22:00,49.6,42.4,30.00,West,273,8.0,8.0,76,0.00,,SCT024,0.09,VWS V14.01,2013-03-09 02:22:00,
2013-03-09 16:23:00,49.0,42.5,30.02,West,278,2.0,5.0,78,0.00,,BKN050,0.09,VWS V14.01,2013-03-09 02:23:00,
2013-03-09 16:24:00,49.1,42.5,30.02,West,281,4.0,7.0,78,0.00,,BKN050,0.09,VWS V14.01,2013-03-09 02:24:00,
2013-03-09 16:25:00,49.0,42.5,30.02,West,271,1.0,5.0,78,0.00,,BKN050,0.09,VWS V14.01,2013-03-09 02:25:00,
2013-03-09 16:26:00,49.0,42.5,30.02,NNW,331,2.0,5.0,78,0.00,,BKN050,0.09,VWS V14.01,2013-03-09 02:26:00,
2013-03-09 16:27:00,49.6,42.4,30.00,WNW,294,6.0,7.0,76,0.00,,SCT024,0.09,VWS V14.01,2013-03-09 02:27:00,
2013-03-09 16:28:00,49.0,42.5,30.02,West,279,4.0,11.0,78,0.00,,BKN050,0.09,VWS V14.01,2013-03-09 02:28:00,
2013-03-09 16:29:00,49.0,42.5,30.02,WNW,296,2.0,6.0,78,0.00,,BKN050,0.09,VWS V14.01,2013-03-09 02:29:00,
2013-03-09 16:30:00,49.0,42.5,30.02,NW,318,0.0,5.0,78,0.00,,BKN050,0.09,VWS V14.01,2013-03-09 02:30:00,
2013-03-09 16:31:00,49.0,42.5,30.02,NW,323,4.0,4.0,78,0.00,,BKN050,0.09,VWS V14.01,2013-03-09 02:31:00,
2013-03-09 16:32:00,49.6,42.4,30.00,WNW,285,5.0,11.0,76,0.00,,SCT024,0.09,VWS V14.01,2013-03-09 02:32:00,
2013-03-09 16:33:00,49.0,42.5,30.02,NW,319,6.0,7.0,78,0.00,,BKN050,0.09,VWS V14.01,2013-03-09 02:33:00,
2013-03-09 16:34:00,49.0,42.5,30.02,West,270,6.0,6.0,78,0.00,,BKN050,0.09,VWS V14.01,2013-03-09 02:34:00,
2013-03-09 16:35:00,49.0,42.5,30.02,SW,229,5.0,8.0,78,0.00,,BKN050,0.09,VWS V14.01,2013-03-09 02:35:00,
2013-03-09 16:36:00,49.0,42.5,30.02,NW,323,5.0,6.0,78,0.00,,BKN050,0.09,VWS V14.01,2013-03-09 02:36:00,
2013-03-09 16:37:00,49.6,42.4,30.00,WSW,249,4.0,6.0,76,0.00,,SCT024,0.09,VWS V14.01,2013-03-09 02:37:00,
2013-03-09 16:38:00,49.0,42.5,30.02,West,259,0.0,6.0,78,0.00,,BKN050,0.09,VWS V14.01,2013-03-09 02:38:00,
2013-03-09 16:39:00,49.0,42.5,30.03,WSW,251,5.0,5.0,78,0.00,,BKN050,0.09,VWS V14.01,2013-03-09 02:39:00,
2013-03-09 16:40:00,49.0,42.5,30.03,WSW,256,1.0,5.0,78,0.00,,BKN050,0.09,VWS V14.01,2013-03-09 02:40:00,
2013-03-09 16:41:00,49.0,42.5,30.03,WSW,256,1.0,4.0,78,0.00,,BKN050,0.09,VWS V14.01,2013-03-09 02:41:00,
2013-03-09 16:42:00,49.5,42.3,30.00,West,261,3.0,10.0,76,0.00,,SCT024,0.09,VWS V14.01,2013-03-09 02:42:00,
2013-03-09 16:43:00,49.0,42.5,30.03,West,265,2.0,3.0,78,0.00,,BKN050,0.09,VWS V14.01,2013-03-09 02:43:00,
2013-03-09 16:44:00,49.0,42.5,30.03,West,265,1.0,2.0,78,0.00,,BKN050,0.09,VWS V14.01,2013-03-09 02:44:00,
2013-03-09 16:45:00,49.0,42.5,30.03,West,265,0.0,2.0,78,0.00,,BKN050,0.09,VWS V14.01,2013-03-09 02:45:00,
2013-03-09 16:46:00,49.0,42.5,30.03,West,265,0.0,1.0,78,0.00,,BKN050,0.09,VWS V14.01,2013-03-09 02:46:00,
2013-03-09 16:47:00,49.4,42.2,30.00,WNW,300,2.0,5.0,76,0.00,,SCT024,0.09,VWS V14.01,2013-03-09 02:47:00,
2013-03-09 16:48:00,48.9,42.3,30.03,West,266,0.0,2.0,78,0.00,,BKN050,0.09,VWS V14.01,2013-03-09 02:48:00,
2013-03-09 16:49:00,48.9,42.3,30.03,West,266,0.0,2.0,78,0.00,,BKN050,0.09,VWS V14.01,2013-03-09 02:49:00,
2013-03-09 16:50:00,48.9,42.3,30.03,West,266,0.0,1.0,78,0.00,,BKN050,0.09,VWS V14.01,2013-03-09 02:50:00,
2013-03-09 16:51:00,48.9,42.3,30.03,West,266,1.0,2.0,78,0.00,,BKN050,0.09,VWS V14.01,2013-03-09 02:51:00,
2013-03-09 16:52:00,49.4,42.5,30.01,West,266,6.0,8.0,77,0.00,,SCT024,0.09,VWS V14.01,2013-03-09 02:52:00,
2013-03-09 16:53:00,48.8,42.3,30.03,West,266,1.0,2.0,78,0.00,,BKN050,0.09,VWS V14.01,2013-03-09 02:53:00,
2013-03-09 16:54:00,48.8,42.3,30.03,West,266,1.0,1.0,78,0.00,,BKN050,0.09,VWS V14.01,2013-03-09 02:54:00,
2013-03-09 16:55:00,48.8,42.6,30.03,West,266,2.0,3.0,79,0.00,,BKN050,0.09,VWS V14.01,2013-03-09 02:55:00,
2013-03-09 16:56:00,48.7,42.5,30.03,West,266,0.0,2.0,79,0.00,,BKN050,0.09,VWS V14.01,2013-03-09 02:56:00,
2013-03-09 16:57:00,49.4,42.5,30.01,NNW,333,9.0,10.0,77,0.00,,SCT024,0.09,VWS V14.01,2013-03-09 02:57:00,
2013-03-09 16:58:00,48.7,42.5,30.03,West,266,0.0,2.0,79,0.00,,BKN050,0.09,VWS V14.01,2013-03-09 02:58:00,
2013-03-09 16:59:00,48.7,42.5,30.03,West,266,0.0,0.0,79,0.00,,BKN050,0.09,VWS V14.01,2013-03-09 02:59:00,
2013-03-09 17:00:00,48.8,42.6,30.03,West,266,1.0,1.0,79,0.00,,BKN050,0.09,VWS V14.01,2013-03-09 03:00:00,
2013-03-09 17:01:00,48.8,42.6,30.04,West,266,1.0,1.0,79,0.00,,BKN050,0.09,VWS V14.01,2013-03-09 03:01:00,
2013-03-09 17:02:00,49.4,42.5,30.01,WNW,283,8.0,9.0,77,0.00,,BKN024,0.09,VWS V14.01,2013-03-09 03:02:00,
2013-03-09 17:03:00,48.8,42.6,30.04,NW,325,4.0,4.0,79,0.00,,BKN050,0.09,VWS V14.01,2013-03-09 03:03:00,
2013-03-09 17:04:00,48.8,42.6,30.04,NW,325,1.0,4.0,79,0.00,,BKN050,0.09,VWS V14.01,2013-03-09 03:04:00,
2013-03-09 17:05:00,48.8,42.6,30.04,NW,325,0.0,2.0,79,0.00,,BKN050,0.09,VWS V14.01,2013-03-09 03:05:00,
2013-03-09 17:06:00,48.8,42.3,30.04,NW,325,0.0,1.0,78,0.00,,BKN050,0.09,VWS V14.01,2013-03-09 03:06:00,
2013-03-09 17:07:00,49.3,42.4,30.01,West,264,2.0,3.0,77,0.00,,BKN024,0.09,VWS V14.01,2013-03-09 03:07:00,
2013-03-09 17:08:00,48.8,42.3,30.04,NW,325,1.0,3.0,78,0.00,,BKN050,0.09,VWS V14.01,2013-03-09 03:08:00,
2013-03-09 17:09:00,48.9,42.3,30.04,West,273,3.0,4.0,78,0.00,,BKN050,0.09,VWS V14.01,2013-03-09 03:09:00,
2013-03-09 17:10:00,48.9,42.3,30.04,West,273,3.0,3.0,78,0.00,,BKN050,0.09,VWS V14.01,2013-03-09 03:10:00,
2013-03-09 17:11:00,48.9,42.3,30.04,WNW,286,2.0,5.0,78,0.00,,BKN050,0.09,VWS V14.01,2013-03-09 03:11:00,
2013-03-09 17:12:00,49.2,42.6,30.01,WNW,293,0.0,1.0,78,0.00,,BKN024,0.09,VWS V14.01,2013-03-09 03:12:00,
2013-03-09 17:13:00,49.0,42.5,30.04,WSW,257,5.0,6.0,78,0.00,,BKN050,0.09,VWS V14.01,2013-03-09 03:13:00,
2013-03-09 17:14:00,49.0,42.5,30.04,WNW,284,1.0,5.0,78,0.00,,BKN050,0.09,VWS V14.01,2013-03-09 03:14:00,
2013-03-09 17:15:00,49.0,42.5,30.04,WNW,286,6.0,6.0,78,0.00,,BKN050,0.09,VWS V14.01,2013-03-09 03:15:00,
2013-03-09 17:16:00,49.0,42.5,30.05,WNW,284,2.0,7.0,78,0.00,,BKN050,0.09,VWS V14.01,2013-03-09 03:16:00,
2013-03-09 17:17:00,49.1,42.5,30.02,NW,313,7.0,7.0,78,0.00,,BKN024,0.09,VWS V14.01,2013-03-09 03:17:00,
2013-03-09 17:18:00,49.0,42.5,30.05,West,278,1.0,4.0,78,0.00,,BKN050,0.09,VWS V14.01,2013-03-09 03:18:00,
2013-03-09 17:19:00,49.0,42.5,30.05,NNW,327,1.0,4.0,78,0.00,,BKN050,0.09,VWS V14.01,2013-03-09 03:19:00,
2013-03-09 17:20:00,49.0,42.1,30.05,WNW,298,5.0,9.0,77,0.00,,BKN050,0.09,VWS V14.01,2013-03-09 03:20:00,
2013-03-09 17:21:00,49.0,42.1,30.05,NW,306,3.0,5.0,77,0.00,,BKN050,0.09,VWS V14.01,2013-03-09 03:21:00,
2013-03-09 17:22:00,49.1,42.5,30.02,WNW,298,2.0,3.0,78,0.00,,BKN024,0.09,VWS V14.01,2013-03-09 03:22:00,
2013-03-09 17:23:00,49.0,42.1,30.05,West,259,3.0,5.0,77,0.00,,BKN050,0.09,VWS V14.01,2013-03-09 03:23:00,
2013-03-09 17:24:00,49.0,42.1,30.05,West,261,3.0,3.0,77,0.00,,BKN050,0.09,VWS V14.01,2013-03-09 03:24:00,
2013-03-09 17:25:00,49.0,42.1,30.05,WNW,288,4.0,8.0,77,0.00,,BKN050,0.09,VWS V14.01,2013-03-09 03:25:00,
2013-03-09 17:26:00,49.1,42.2,30.05,West,275,4.0,6.0,77,0.00,,BKN050,0.09,VWS V14.01,2013-03-09 03:26:00,
2013-03-09 17:27:00,49.0,42.5,30.02,West,276,4.0,6.0,78,0.00,,BKN024,0.09,VWS V14.01,2013-03-09 03:27:00,
2013-03-09 17:28:00,49.1,42.2,30.05,West,273,0.0,6.0,77,0.00,,BKN050,0.09,VWS V14.01,2013-03-09 03:28:00,
2013-03-09 17:31:00,49.1,42.2,30.05,West,281,3.0,4.0,77,0.00,,BKN050,0.09,VWS V14.01,2013-03-09 03:31:00,
2013-03-09 17:32:00,49.0,42.5,30.02,West,259,4.0,6.0,78,0.00,,BKN024,0.09,VWS V14.01,2013-03-09 03:32:00,
2013-03-09 17:33:00,49.1,42.2,30.05,NW,314,2.0,5.0,77,0.00,,BKN050,0.09,VWS V14.01,2013-03-09 03:33:00,
2013-03-09 17:34:00,49.1,42.2,30.05,WNW,294,2.0,5.0,77,0.00,,BKN050,0.09,VWS V14.01,2013-03-09 03:34:00,
2013-03-09 17:35:00,49.2,42.3,30.05,WNW,291,3.0,3.0,77,0.00,,BKN050,0.09,VWS V14.01,2013-03-09 03:35:00,
2013-03-09 17:37:00,49.0,42.5,30.03,West,259,1.0,1.0,78,0.00,,BKN024,0.09,VWS V14.01,2013-03-09 03:37:00,
2013-03-09 17:38:00,49.2,42.3,30.05,West,267,3.0,5.0,77,0.00,,BKN050,0.09,VWS V14.01,2013-03-09 03:38:00,
2013-03-09 17:39:00,49.2,42.3,30.05,WNW,300,1.0,3.0,77,0.00,,BKN050,0.09,VWS V14.01,2013-03-09 03:39:00,
2013-03-09 17:41:00,49.2,42.3,30.05,NW,322,2.0,9.0,77,0.00,,BKN050,0.09,VWS V14.01,2013-03-09 03:41:00,
2013-03-09 17:42:00,49.0,42.5,30.03,West,265,1.0,2.0,78,0.00,,BKN024,0.09,VWS V14.01,2013-03-09 03:42:00,
2013-03-09 17:43:00,49.2,42.3,30.05,West,261,3.0,7.0,77,0.00,,BKN050,0.09,VWS V14.01,2013-03-09 03:43:00,
2013-03-09 17:44:00,49.2,42.3,30.05,NW,322,5.0,11.0,77,0.00,,BKN050,0.09,VWS V14.01,2013-03-09 03:44:00,
2013-03-09 17:45:00,49.2,42.3,30.05,WNW,288,4.0,8.0,77,0.00,,BKN050,0.09,VWS V14.01,2013-03-09 03:45:00,
2013-03-09 17:46:00,49.2,42.3,30.05,NW,322,9.0,9.0,77,0.00,,BKN050,0.09,VWS V14.01,2013-03-09 03:46:00,
2013-03-09 17:47:00,48.9,42.3,30.03,West,266,0.0,0.0,78,0.00,,BKN024,0.09,VWS V14.01,2013-03-09 03:47:00,
2013-03-09 17:48:00,49.2,42.3,30.05,West,265,5.0,6.0,77,0.00,,BKN050,0.09,VWS V14.01,2013-03-09 03:48:00,
2013-03-09 17:49:00,49.2,42.3,30.05,West,273,2.0,5.0,77,0.00,,BKN050,0.09,VWS V14.01,2013-03-09 03:49:00,
2013-03-09 17:50:00,49.2,42.3,30.05,West,270,3.0,4.0,77,0.00,,BKN050,0.09,VWS V14.01,2013-03-09 03:50:00,
2013-03-09 17:51:00,49.2,42.3,30.05,WNW,290,3.0,3.0,77,0.00,,BKN050,0.09,VWS V14.01,2013-03-09 03:51:00,
2013-03-09 17:52:00,48.8,42.3,30.03,West,266,0.0,1.0,78,0.00,,BKN024,0.09,VWS V14.01,2013-03-09 03:52:00,
2013-03-09 17:53:00,49.2,42.3,30.05,WNW,288,3.0,6.0,77,0.00,,BKN050,0.09,VWS V14.01,2013-03-09 03:53:00,
2013-03-09 17:54:00,49.2,42.3,30.05,West,270,4.0,6.0,77,0.00,,BKN050,0.09,VWS V14.01,2013-03-09 03:54:00,
2013-03-09 17:55:00,49.2,42.3,30.06,WNW,288,1.0,5.0,77,0.00,,BKN050,0.09,VWS V14.01,2013-03-09 03:55:00,
2013-03-09 17:56:00,49.2,42.3,30.05,WNW,288,3.0,3.0,77,0.00,,BKN050,0.09,VWS V14.01,2013-03-09 03:56:00,
2013-03-09 17:57:00,48.8,42.6,30.03,West,266,0.0,0.0,79,0.00,,BKN024,0.09,VWS V14.01,2013-03-09 03:57:00,
2013-03-09 17:58:00,49.2,42.3,30.06,West,260,3.0,4.0,77,0.00,,BKN050,0.09,VWS V14.01,2013-03-09 03:58:00,
2013-03-09 17:59:00,49.1,42.2,30.06,NNW,338,4.0,4.0,77,0.00,,BKN050,0.09,VWS V14.01,2013-03-09 03:59:00,
2013-03-09 18:00:00,49.1,42.2,30.05,NNW,336,0.0,4.0,77,0.00,,BKN050,0.09,VWS V14.01,2013-03-09 04:00:00,
2013-03-09 18:01:00,49.1,42.2,30.05,NNW,336,0.0,1.0,77,0.00,,BKN050,0.09,VWS V14.01,2013-03-09 04:01:00,
2013-03-09 18:02:00,48.8,42.6,30.04,NW,325,0.0,4.0,79,0.00,,BKN024,0.09,VWS V14.01,2013-03-09 04:02:00,
2013-03-09 18:03:00,49.1,42.2,30.06,West,275,2.0,4.0,77,0.00,,BKN050,0.09,VWS V14.01,2013-03-09 04:03:00,
2013-03-09 18:04:00,49.1,42.2,30.06,West,275,2.0,3.0,77,0.00,,BKN050,0.09,VWS V14.01,2013-03-09 04:04:00,
2013-03-09 18:05:00,49.0,42.1,30.06,WNW,293,2.0,3.0,77,0.00,,BKN050,0.09,VWS V14.01,2013-03-09 04:05:00,
2013-03-09 18:06:00,49.0,42.1,30.06,WNW,282,0.0,4.0,77,0.00,,BKN050,0.09,VWS V14.01,2013-03-09 04:06:00,
2013-03-09 18:07:00,48.9,42.3,30.04,NW,325,1.0,2.0,78,0.00,,BKN024,0.09,VWS V14.01,2013-03-09 04:07:00,
2013-03-09 18:08:00,49.0,42.1,30.06,West,279,3.0,3.0,77,0.00,,BKN050,0.09,VWS V14.01,2013-03-09 04:08:00,
2013-03-09 18:09:00,49.0,42.1,30.06,West,279,0.0,3.0,77,0.00,,BKN050,0.09,VWS V14.01,2013-03-09 04:09:00,
2013-03-09 18:10:00,49.0,42.5,30.06,West,279,0.0,0.0,78,0.00,,BKN050,0.09,VWS V14.01,2013-03-09 04:10:00,
2013-03-09 18:11:00,48.9,42.3,30.06,West,279,2.0,2.0,78,0.00,,BKN050,0.09,VWS V14.01,2013-03-09 04:11:00,
2013-03-09 18:12:00,48.9,42.3,30.04,WNW,284,3.0,5.0,78,0.00,,BKN024,0.09,VWS V14.01,2013-03-09 04:12:00,
2013-03-09 18:13:00,48.9,42.3,30.06,West,275,2.0,4.0,78,0.00,,BKN050,0.09,VWS V14.01,2013-03-09 04:13:00,
2013-03-09 18:14:00,48.8,42.3,30.06,West,274,1.0,2.0,78,0.00,,BKN050,0.09,VWS V14.01,2013-03-09 04:14:00,
2013-03-09 18:15:00,48.8,42.3,30.06,West,274,1.0,2.0,78,0.00,,BKN050,0.09,VWS V14.01,2013-03-09 04:15:00,
2013-03-09 18:16:00,48.7,42.2,30.06,West,275,0.0,1.0,78,0.00,,BKN050,0.09,VWS V14.01,2013-03-09 04:16:00,
2013-03-09 18:17:00,49.0,42.5,30.05,NW,320,2.0,2.0,78,0.00,,BKN024,0.09,VWS V14.01,2013-03-09 04:17:00,
2013-03-09 18:18:00,48.7,42.2,30.06,West,275,3.0,3.0,78,0.00,,BKN050,0.09,VWS V14.01,2013-03-09 04:18:00,
2013-03-09 18:19:00,48.7,42.2,30.06,West,274,3.0,4.0,78,0.00,,BKN050,0.09,VWS V14.01,2013-03-09 04:19:00,
2013-03-09 18:20:00,48.6,42.1,30.06,West,275,1.0,4.0,78,0.00,,BKN050,0.09,VWS V14.01,2013-03-09 04:20:00,
2013-03-09 18:21:00,48.6,42.1,30.06,West,274,0.0,2.0,78,0.00,,BKN050,0.09,VWS V14.01,2013-03-09 04:21:00,
2013-03-09 18:22:00,49.0,42.1,30.05,WSW,258,3.0,3.0,77,0.00,,BKN024,0.09,VWS V14.01,2013-03-09 04:22:00,
2013-03-09 18:23:00,48.6,42.1,30.06,West,275,1.0,3.0,78,0.00,,BKN050,0.09,VWS V14.01,2013-03-09 04:23:00,
2013-03-09 18:24:00,48.6,42.1,30.06,West,275,0.0,2.0,78,0.00,,BKN050,0.09,VWS V14.01,2013-03-09 04:24:00,
2013-03-09 18:25:00,48.5,42.0,30.06,WSW,246,1.0,3.0,78,0.00,,BKN050,0.09,VWS V14.01,2013-03-09 04:25:00,
2013-03-09 18:26:00,48.5,42.0,30.06,WSW,246,0.0,1.0,78,0.00,,BKN050,0.09,VWS V14.01,2013-03-09 04:26:00,
2013-03-09 18:27:00,49.1,42.2,30.05,West,273,1.0,1.0,77,0.00,,BKN024,0.09,VWS V14.01,2013-03-09 04:27:00,
2013-03-09 18:28:00,48.4,42.2,30.07,WSW,246,0.0,1.0,79,0.00,,BKN050,0.09,VWS V14.01,2013-03-09 04:28:00,
2013-03-09 18:29:00,48.3,42.1,30.06,WSW,246,0.0,1.0,79,0.00,,BKN050,0.09,VWS V14.01,2013-03-09 04:29:00,
2013-03-09 18:30:00,48.3,42.1,30.07,WSW,247,2.0,2.0,79,0.00,,BKN050,0.09,VWS V14.01,2013-03-09 04:30:00,
2013-03-09 18:31:00,48.3,42.1,30.07,West,263,3.0,4.0,79,0.00,,BKN050,0.09,VWS V14.01,2013-03-09 04:31:00,
2013-03-09 18:32:00,49.1,42.2,30.05,NW,313,2.0,2.0,77,0.00,,BKN024,0.09,VWS V14.01,2013-03-09 04:32:00,
2013-03-09 18:33:00,48.2,42.0,30.07,West,261,4.0,4.0,79,0.00,,BKN050,0.09,VWS V14.01,2013-03-09 04:33:00,
2013-03-09 18:34:00,48.3,42.1,30.07,West,259,5.0,5.0,79,0.00,,BKN050,0.09,VWS V14.01,2013-03-09 04:34:00,
2013-03-09 18:35:00,48.2,42.0,30.07,West,277,1.0,5.0,79,0.00,,BKN050,0.09,VWS V14.01,2013-03-09 04:35:00,
2013-03-09 18:36:00,48.2,42.0,30.07,West,267,1.0,3.0,79,0.00,,BKN050,0.09,VWS V14.01,2013-03-09 04:36:00,
2013-03-09 18:37:00,49.2,42.3,30.05,West,267,2.0,3.0,77,0.00,,BKN024,0.09,VWS V14.01,2013-03-09 04:37:00,
2013-03-09 18:38:00,48.2,42.0,30.07,West,281,2.0,5.0,79,0.00,,BKN050,0.09,VWS V14.01,2013-03-09 04:38:00,
2013-03-09 18:39:00,48.2,42.0,30.07,WNW,284,2.0,4.0,79,0.00,,BKN050,0.09,VWS V14.01,2013-03-09 04:39:00,
2013-03-09 18:40:00,48.2,42.0,30.07,West,279,1.0,3.0,79,0.00,,BKN050,0.09,VWS V14.01,2013-03-09 04:40:00,
2013-03-09 18:41:00,48.2,42.0,30.07,West,279,1.0,2.0,79,0.00,,BKN050,0.09,VWS V14.01,2013-03-09 04:41:00,
2013-03-09 18:42:00,49.2,42.3,30.05,WNW,287,2.0,4.0,77,0.00,,BKN024,0.09,VWS V14.01,2013-03-09 04:42:00,
2013-03-09 18:43:00,48.2,42.0,30.07,WSW,257,3.0,5.0,79,0.00,,BKN050,0.09,VWS V14.01,2013-03-09 04:43:00,
2013-03-09 18:44:00,48.3,42.1,30.07,West,263,5.0,5.0,79,0.00,,BKN050,0.09,VWS V14.01,2013-03-09 04:44:00,
2013-03-09 18:45:00,48.3,42.1,30.07,WSW,250,4.0,5.0,79,0.00,,BKN050,0.09,VWS V14.01,2013-03-09 04:45:00,
2013-03-09 18:46:00,48.3,42.1,30.07,West,278,4.0,4.0,79,0.00,,BKN050,0.09,VWS V14.01,2013-03-09 04:46:00,
2013-03-09 18:47:00,49.2,42.3,30.05,West,263,3.0,5.0,77,0.00,,BKN024,0.09,VWS V14.01,2013-03-09 04:47:00,
2013-03-09 18:48:00,48.3,42.1,30.07,WNW,290,2.0,2.0,79,0.00,,BKN050,0.09,VWS V14.01,2013-03-09 04:48:00,
2013-03-09 18:49:00,48.4,42.2,30.07,West,277,2.0,4.0,79,0.00,,BKN050,0.09,VWS V14.01,2013-03-09 04:49:00,
2013-03-09 18:50:00,48.4,42.2,30.07,West,278,2.0,2.0,79,0.00,,BKN050,0.09,VWS V14.01,2013-03-09 04:50:00,
2013-03-09 18:51:00,48.4,41.9,30.07,West,270,4.0,4.0,78,0.00,,BKN050,0.09,VWS V14.01,2013-03-09 04:51:00,
2013-03-09 18:52:00,49.2,42.3,30.05,West,273,4.0,4.0,77,0.00,,BKN024,0.09,VWS V14.01,2013-03-09 04:52:00,
2013-03-09 18:55:00,48.6,42.1,30.07,WNW,291,1.0,3.0,78,0.00,,BKN050,0.09,VWS V14.01,2013-03-09 04:55:00,
2013-03-09 18:56:00,48.6,42.1,30.07,WNW,291,1.0,2.0,78,0.00,,BKN050,0.09,VWS V14.01,2013-03-09 04:56:00,
2013-03-09 18:57:00,49.1,42.2,30.06,West,260,2.0,3.0,77,0.00,,BKN024,0.09,VWS V14.01,2013-03-09 04:57:00,
2013-03-09 18:58:00,48.6,42.1,30.07,NW,306,2.0,3.0,78,0.00,,BKN050,0.09,VWS V14.01,2013-03-09 04:58:00,
2013-03-09 18:59:00,48.6,42.1,30.07,WNW,292,1.0,4.0,78,0.00,,BKN050,0.09,VWS V14.01,2013-03-09 04:59:00,
2013-03-09 19:00:00,49.1,42.2,30.05,NNW,336,1.0,1.0,77,0.00,,BKN024,0.09,VWS V14.01,2013-03-09 05:00:00,
2013-03-09 19:01:00,48.6,42.1,30.07,West,265,6.0,6.0,78,0.00,,BKN050,0.09,VWS V14.01,2013-03-09 05:01:00,
2013-03-09 19:02:00,48.6,42.1,30.07,West,272,4.0,6.0,78,0.00,,BKN050,0.09,VWS V14.01,2013-03-09 05:02:00,
2013-03-09 19:03:00,48.6,42.1,30.07,West,265,2.0,6.0,78,0.00,,BKN050,0.09,VWS V14.01,2013-03-09 05:03:00,
2013-03-09 19:04:00,48.6,42.1,30.07,West,271,3.0,4.0,78,0.00,,BKN050,0.09,VWS V14.01,2013-03-09 05:04:00,
2013-03-09 19:05:00,49.0,42.1,30.06,WNW,282,0.0,1.0,77,0.00,,BKN024,0.09,VWS V14.01,2013-03-09 05:05:00,
2013-03-09 19:06:00,48.6,42.1,30.07,West,268,2.0,4.0,78,0.00,,BKN050,0.09,VWS V14.01,2013-03-09 05:06:00,
2013-03-09 19:07:00,48.6,42.1,30.07,WSW,258,2.0,4.0,78,0.00,,BKN050,0.09,VWS V14.01,2013-03-09 05:07:00,
2013-03-09 19:08:00,48.6,42.1,30.07,West,277,4.0,4.0,78,0.00,,BKN050,0.09,VWS V14.01,2013-03-09 05:08:00,
2013-03-09 19:09:00,48.6,42.1,30.07,West,272,1.0,4.0,78,0.00,,BKN050,0.09,VWS V14.01,2013-03-09 05:09:00,
2013-03-09 19:10:00,48.9,42.3,30.06,West,279,0.0,2.0,78,0.00,,BKN024,0.09,VWS V14.01,2013-03-09 05:10:00,
2013-03-09 19:11:00,48.6,42.1,30.07,West,271,2.0,3.0,78,0.00,,BKN050,0.09,VWS V14.01,2013-03-09 05:11:00,
2013-03-09 19:12:00,48.6,42.4,30.07,West,271,0.0,2.0,79,0.00,,BKN050,0.09,VWS V14.01,2013-03-09 05:12:00,
2013-03-09 19:13:00,48.6,42.4,30.07,West,271,1.0,3.0,79,0.00,,BKN050,0.09,VWS V14.01,2013-03-09 05:13:00,
2013-03-09 19:14:00,48.6,42.4,30.07,West,271,0.0,1.0,79,0.00,,BKN050,0.09,VWS V14.01,2013-03-09 05:14:00,
2013-03-09 19:15:00,48.7,42.2,30.06,West,275,1.0,2.0,78,0.00,,BKN024,0.09,VWS V14.01,2013-03-09 05:15:00,
2013-03-09 19:16:00,48.5,42.3,30.07,West,271,0.0,1.0,79,0.00,,BKN050,0.09,VWS V14.01,2013-03-09 05:16:00,
2013-03-09 19:17:00,48.5,42.3,30.07,West,271,0.0,0.0,79,0.00,,BKN050,0.09,VWS V14.01,2013-03-09 05:17:00,
2013-03-09 19:18:00,48.4,42.2,30.07,West,271,0.0,0.0,79,0.00,,BKN050,0.09,VWS V14.01,2013-03-09 05:18:00,
2013-03-09 19:19:00,48.4,42.2,30.07,West,271,0.0,0.0,79,0.00,,BKN050,0.09,VWS V14.01,2013-03-09 05:19:00,
2013-03-09 19:20:00,48.6,42.1,30.06,West,275,1.0,1.0,78,0.00,,BKN024,0.09,VWS V14.01,2013-03-09 05:20:00,
2013-03-09 19:21:00,48.3,42.1,30.07,West,271,0.0,1.0,79,0.00,,BKN050,0.09,VWS V14.01,2013-03-09 05:21:00,
2013-03-09 19:22:00,48.2,42.0,30.08,West,271,0.0,0.0,79,0.00,,BKN050,0.09,VWS V14.01,2013-03-09 05:22:00,
2013-03-09 19:23:00,48.2,42.0,30.07,West,271,0.0,0.0,79,0.00,,BKN050,0.09,VWS V14.01,2013-03-09 05:23:00,
2013-03-09 19:24:00,48.2,42.3,30.07,West,271,0.0,1.0,80,0.00,,BKN050,0.09,VWS V14.01,2013-03-09 05:24:00,
2013-03-09 19:25:00,48.5,42.0,30.06,WSW,246,0.0,1.0,78,0.00,,BKN024,0.09,VWS V14.01,2013-03-09 05:25:00,
2013-03-09 19:26:00,48.2,42.3,30.08,NW,315,2.0,3.0,80,0.00,,BKN050,0.09,VWS V14.01,2013-03-09 05:26:00,
2013-03-09 19:27:00,48.2,42.3,30.08,NW,315,1.0,2.0,80,0.00,,BKN050,0.09,VWS V14.01,2013-03-09 05:27:00,
2013-03-09 19:28:00,48.3,42.4,30.08,NW,315,1.0,3.0,80,0.00,,BKN050,0.09,VWS V14.01,2013-03-09 05:28:00,
2013-03-09 19:29:00,48.3,42.4,30.08,WNW,300,1.0,3.0,80,0.00,,BKN050,0.09,VWS V14.01,2013-03-09 05:29:00,
2013-03-09 19:30:00,48.3,42.1,30.07,West,265,1.0,3.0,79,0.00,,BKN024,0.09,VWS V14.01,2013-03-09 05:30:00,
2013-03-09 19:31:00,48.4,42.5,30.07,WNW,300,0.0,1.0,80,0.00,,BKN050,0.09,VWS V14.01,2013-03-09 05:31:00,
2013-03-09 19:32:00,48.4,42.5,30.07,WNW,300,0.0,2.0,80,0.00,,BKN050,0.09,VWS V14.01,2013-03-09 05:32:00,
2013-03-09 19:33:00,48.4,42.5,30.07,WNW,300,0.0,1.0,80,0.00,,BKN050,0.09,VWS V14.01,2013-03-09 05:33:00,
2013-03-09 19:34:00,48.4,42.5,30.07,WNW,300,1.0,1.0,80,0.00,,BKN050,0.09,VWS V14.01,2013-03-09 05:34:00,
2013-03-09 19:35:00,48.2,42.0,30.07,West,264,4.0,4.0,79,0.00,,BKN024,0.09,VWS V14.01,2013-03-09 05:35:00,
2013-03-09 19:36:00,48.3,42.1,30.07,WNW,300,0.0,1.0,79,0.00,,BKN050,0.09,VWS V14.01,2013-03-09 05:36:00,
2013-03-09 19:37:00,48.3,42.1,30.07,WNW,300,0.0,1.0,79,0.00,,BKN050,0.09,VWS V14.01,2013-03-09 05:37:00,
2013-03-09 19:38:00,48.3,42.4,30.07,WNW,300,0.0,1.0,80,0.00,,BKN050,0.09,VWS V14.01,2013-03-09 05:38:00,
2013-03-09 19:39:00,48.3,42.4,30.07,WNW,300,0.0,1.0,80,0.00,,BKN050,0.09,VWS V14.01,2013-03-09 05:39:00,
2013-03-09 19:40:00,48.2,42.0,30.07,West,275,4.0,6.0,79,0.00,,BKN024,0.09,VWS V14.01,2013-03-09 05:40:00,
2013-03-09 19:41:00,48.2,42.3,30.07,WNW,300,0.0,0.0,80,0.00,,BKN050,0.09,VWS V14.01,2013-03-09 05:41:00,
2013-03-09 19:42:00,48.1,42.2,30.07,WNW,300,0.0,1.0,80,0.00,,BKN050,0.09,VWS V14.01,2013-03-09 05:42:00,
2013-03-09 19:43:00,48.1,42.2,30.08,WNW,300,1.0,2.0,80,0.00,,BKN050,0.09,VWS V14.01,2013-03-09 05:43:00,
2013-03-09 19:44:00,48.0,41.8,30.07,WNW,300,1.0,1.0,79,0.00,,BKN050,0.09,VWS V14.01,2013-03-09 05:44:00,
2013-03-09 19:45:00,48.3,42.1,30.07,West,274,3.0,4.0,79,0.00,,BKN024,0.09,VWS V14.01,2013-03-09 05:45:00,
2013-03-09 19:46:00,47.9,41.7,30.08,WNW,300,0.0,1.0,79,0.00,,BKN050,0.09,VWS V14.01,2013-03-09 05:46:00,
2013-03-09 19:47:00,47.9,42.0,30.08,WNW,300,0.0,0.0,80,0.00,,BKN050,0.09,VWS V14.01,2013-03-09 05:47:00,
2013-03-09 19:48:00,47.9,42.0,30.08,WNW,300,0.0,0.0,80,0.00,,BKN050,0.09,VWS V14.01,2013-03-09 05:48:00,
2013-03-09 19:49:00,47.9,42.0,30.08,WNW,300,0.0,0.0,80,0.00,,BKN050,0.09,VWS V14.01,2013-03-09 05:49:00,
2013-03-09 19:50:00,48.5,42.0,30.07,NW,321,1.0,5.0,78,0.00,,BKN024,0.09,VWS V14.01,2013-03-09 05:50:00,
2013-03-09 19:51:00,47.8,41.9,30.08,WNW,300,0.0,0.0,80,0.00,,BKN050,0.09,VWS V14.01,2013-03-09 05:51:00,
2013-03-09 19:52:00,47.8,41.9,30.08,WNW,300,0.0,0.0,80,0.00,,BKN050,0.09,VWS V14.01,2013-03-09 05:52:00,
2013-03-09 19:53:00,47.8,41.9,30.08,WNW,300,0.0,0.0,80,0.00,,BKN050,0.09,VWS V14.01,2013-03-09 05:53:00,
2013-03-09 19:54:00,47.8,41.9,30.08,WNW,300,0.0,1.0,80,0.00,,BKN050,0.09,VWS V14.01,2013-03-09 05:54:00,
2013-03-09 19:55:00,48.6,42.1,30.07,WNW,291,1.0,1.0,78,0.00,,BKN024,0.09,VWS V14.01,2013-03-09 05:55:00,
2013-03-09 19:56:00,47.8,41.9,30.08,WNW,300,0.0,1.0,80,0.00,,BKN050,0.09,VWS V14.01,2013-03-09 05:56:00,
2013-03-09 19:57:00,47.8,41.9,30.08,WNW,300,1.0,1.0,80,0.00,,BKN050,0.09,VWS V14.01,2013-03-09 05:57:00,
2013-03-09 19:58:00,47.8,41.9,30.08,WNW,300,0.0,1.0,80,0.00,,BKN050,0.09,VWS V14.01,2013-03-09 05:58:00,
2013-03-09 19:59:00,47.8,41.9,30.08,WNW,300,0.0,0.0,80,0.00,,BKN050,0.09,VWS V14.01,2013-03-09 05:59:00,
2013-03-09 20:00:00,48.6,42.1,30.07,WNW,286,3.0,6.0,78,0.00,,BKN024,0.09,VWS V14.01,2013-03-09 06:00:00,
2013-03-09 20:02:00,47.8,41.9,30.08,WNW,300,0.0,0.0,80,0.00,,BKN050,0.09,VWS V14.01,2013-03-09 06:02:00,
2013-03-09 20:03:00,47.8,41.9,30.08,WNW,300,0.0,0.0,80,0.00,,BKN050,0.09,VWS V14.01,2013-03-09 06:03:00,
2013-03-09 20:04:00,47.8,41.9,30.08,WNW,300,0.0,1.0,80,0.00,,BKN050,0.09,VWS V14.01,2013-03-09 06:04:00,
2013-03-09 20:05:00,48.6,42.1,30.07,West,267,4.0,4.0,78,0.00,,BKN024,0.09,VWS V14.01,2013-03-09 06:05:00,
2013-03-09 20:06:00,47.8,41.9,30.08,WNW,300,0.0,2.0,80,0.00,,BKN050,0.09,VWS V14.01,2013-03-09 06:06:00,
2013-03-09 20:07:00,47.9,42.0,30.08,WNW,300,0.0,1.0,80,0.00,,BKN050,0.09,VWS V14.01,2013-03-09 06:07:00,
2013-03-09 20:08:00,47.9,42.0,30.08,WNW,300,0.0,0.0,80,0.00,,BKN050,0.09,VWS V14.01,2013-03-09 06:08:00,
2013-03-09 20:09:00,47.9,42.0,30.08,WNW,300,0.0,0.0,80,0.00,,BKN050,0.09,VWS V14.01,2013-03-09 06:09:00,
2013-03-09 20:10:00,48.6,42.1,30.07,West,271,0.0,2.0,78,0.00,,BKN024,0.09,VWS V14.01,2013-03-09 06:10:00,
2013-03-09 20:11:00,47.9,42.0,30.08,WNW,300,0.0,0.0,80,0.00,,BKN050,0.09,VWS V14.01,2013-03-09 06:11:00,
2013-03-09 20:12:00,47.9,42.0,30.08,WNW,300,0.0,0.0,80,0.00,,BKN050,0.09,VWS V14.01,2013-03-09 06:12:00,
2013-03-09 20:13:00,47.8,41.9,30.08,WNW,300,0.0,1.0,80,0.00,,BKN050,0.09,VWS V14.01,2013-03-09 06:13:00,
2013-03-09 20:14:00,47.8,41.9,30.08,WNW,300,0.0,0.0,80,0.00,,BKN050,0.09,VWS V14.01,2013-03-09 06:14:00,
2013-03-09 20:15:00,48.5,42.3,30.07,West,271,0.0,0.0,79,0.00,,BKN024,0.09,VWS V14.01,2013-03-09 06:15:00,
2013-03-09 20:16:00,47.8,41.9,30.08,WNW,300,0.0,0.0,80,0.00,,BKN050,0.09,VWS V14.01,2013-03-09 06:16:00,
2013-03-09 20:17:00,47.8,41.9,30.08,WNW,300,0.0,0.0,80,0.00,,BKN050,0.09,VWS V14.01,2013-03-09 06:17:00,
2013-03-09 20:18:00,47.7,41.8,30.08,WNW,300,0.0,0.0,80,0.00,,BKN050,0.09,VWS V14.01,2013-03-09 06:18:00,
2013-03-09 20:20:00,48.2,42.0,30.08,West,271,0.0,0.0,79,0.00,,BKN024,0.09,VWS V14.01,2013-03-09 06:20:00,
2013-03-09 20:21:00,47.7,42.2,30.08,WNW,300,0.0,1.0,81,0.00,,BKN050,0.09,VWS V14.01,2013-03-09 06:21:00,
2013-03-09 20:22:00,47.7,42.2,30.08,WNW,300,0.0,0.0,81,0.00,,BKN050,0.09,VWS V14.01,2013-03-09 06:22:00,
2013-03-09 20:23:00,47.6,42.1,30.08,WNW,300,0.0,0.0,81,0.00,,BKN050,0.09,VWS V14.01,2013-03-09 06:23:00,
2013-03-09 20:24:00,47.6,42.1,30.08,WNW,300,0.0,0.0,81,0.00,,BKN050,0.09,VWS V14.01,2013-03-09 06:24:00,
2013-03-09 20:25:00,48.2,42.3,30.08,NW,315,1.0,2.0,80,0.00,,BKN024,0.09,VWS V14.01,2013-03-09 06:25:00,
2013-03-09 20:26:00,47.5,42.0,30.08,WNW,300,0.0,0.0,81,0.00,,BKN050,0.09,VWS V14.01,2013-03-09 06:26:00,
2013-03-09 20:27:00,47.5,42.0,30.08,WNW,300,0.0,0.0,81,0.00,,BKN050,0.09,VWS V14.01,2013-03-09 06:27:00,
2013-03-09 20:28:00,47.4,41.9,30.08,WNW,300,0.0,1.0,81,0.00,,BKN050,0.09,VWS V14.01,2013-03-09 06:28:00,
2013-03-09 20:29:00,47.4,41.9,30.08,WNW,300,0.0,0.0,81,0.00,,BKN050,0.09,VWS V14.01,2013-03-09 06:29:00,
2013-03-09 20:30:00,48.4,42.5,30.07,WNW,300,2.0,2.0,80,0.00,,BKN024,0.09,VWS V14.01,2013-03-09 06:30:00,
2013-03-09 20:31:00,47.4,41.9,30.09,NW,325,1.0,1.0,81,0.00,,BKN050,0.09,VWS V14.01,2013-03-09 06:31:00,
2013-03-09 20:32:00,47.4,42.2,30.09,NW,325,0.0,2.0,82,0.00,,BKN050,0.09,VWS V14.01,2013-03-09 06:32:00,
2013-03-09 20:33:00,47.3,42.1,30.09,NW,325,0.0,1.0,82,0.00,,BKN050,0.09,VWS V14.01,2013-03-09 06:33:00,
2013-03-09 20:34:00,47.3,42.1,30.09,NW,325,1.0,1.0,82,0.00,,BKN050,0.09,VWS V14.01,2013-03-09 06:34:00,
2013-03-09 20:35:00,48.3,42.1,30.07,WNW,300,1.0,1.0,79,0.00,,BKN024,0.09,VWS V14.01,2013-03-09 06:35:00,
2013-03-09 20:36:00,47.2,42.0,30.08,NW,325,1.0,1.0,82,0.00,,BKN050,0.09,VWS V14.01,2013-03-09 06:36:00,
2013-03-09 20:37:00,47.2,42.0,30.08,NW,325,0.0,2.0,82,0.00,,BKN050,0.09,VWS V14.01,2013-03-09 06:37:00,
2013-03-09 20:38:00,47.1,41.9,30.08,NW,325,1.0,3.0,82,0.00,,BKN050,0.09,VWS V14.01,2013-03-09 06:38:00,
2013-03-09 20:39:00,47.1,41.9,30.08,NW,325,0.0,1.0,82,0.00,,BKN050,0.09,VWS V14.01,2013-03-09 06:39:00,
2013-03-09 20:40:00,48.2,42.3,30.07,WNW,300,0.0,0.0,80,0.00,,BKN024,0.09,VWS V14.01,2013-03-09 06:40:00,
2013-03-09 20:41:00,47.0,41.8,30.09,NW,325,0.0,1.0,82,0.00,,BKN050,0.09,VWS V14.01,2013-03-09 06:41:00,
2013-03-09 20:42:00,47.0,41.8,30.09,NW,325,0.0,0.0,82,0.00,,BKN050,0.09,VWS V14.01,2013-03-09 06:42:00,
2013-03-09 20:43:00,46.9,41.7,30.09,NW,325,0.0,0.0,82,0.00,,BKN050,0.09,VWS V14.01,2013-03-09 06:43:00,
2013-03-09 20:44:00,46.8,41.6,30.09,NW,325,0.0,0.0,82,0.00,,BKN050,0.09,VWS V14.01,2013-03-09 06:44:00,
2013-03-09 20:45:00,47.9,41.7,30.08,WNW,300,0.0,0.0,79,0.00,,BKN024,0.09,VWS V14.01,2013-03-09 06:45:00,
2013-03-09 20:46:00,46.7,41.8,30.09,NW,325,0.0,1.0,83,0.00,,BKN050,0.09,VWS V14.01,2013-03-09 06:46:00,
2013-03-09 20:47:00,46.7,41.8,30.09,NW,325,0.0,0.0,83,0.00,,BKN050,0.09,VWS V14.01,2013-03-09 06:47:00,
2013-03-09 20:48:00,46.7,41.8,30.09,NW,325,0.0,0.0,83,0.00,,BKN050,0.09,VWS V14.01,2013-03-09 06:48:00,
2013-03-09 20:49:00,46.7,41.8,30.09,NW,325,0.0,0.0,83,0.00,,BKN050,0.09,VWS V14.01,2013-03-09 06:49:00,
2013-03-09 20:50:00,47.8,41.9,30.08,WNW,300,0.0,0.0,80,0.00,,BKN024,0.09,VWS V14.01,2013-03-09 06:50:00,
2013-03-09 20:51:00,46.6,41.7,30.09,NW,325,0.0,0.0,83,0.00,,BKN050,0.09,VWS V14.01,2013-03-09 06:51:00,
2013-03-09 20:52:00,46.5,41.6,30.09,NW,325,0.0,1.0,83,0.00,,BKN050,0.09,VWS V14.01,2013-03-09 06:52:00,
2013-03-09 20:53:00,46.5,41.6,30.09,NW,325,0.0,0.0,83,0.00,,BKN050,0.09,VWS V14.01,2013-03-09 06:53:00,
2013-03-09 20:54:00,46.5,41.6,30.09,NW,325,0.0,0.0,83,0.00,,BKN050,0.09,VWS V14.01,2013-03-09 06:54:00,
2013-03-09 20:55:00,47.8,41.9,30.08,WNW,300,0.0,0.0,80,0.00,,BKN024,0.09,VWS V14.01,2013-03-09 06:55:00,
2013-03-09 20:56:00,46.4,41.5,30.09,NW,325,0.0,0.0,83,0.00,,BKN050,0.09,VWS V14.01,2013-03-09 06:56:00,
2013-03-09 20:57:00,46.3,41.4,30.09,NW,325,0.0,1.0,83,0.00,,BKN050,0.09,VWS V14.01,2013-03-09 06:57:00,
2013-03-09 20:58:00,46.3,41.4,30.09,NW,325,1.0,1.0,83,0.00,,BKN050,0.09,VWS V14.01,2013-03-09 06:58:00,
2013-03-09 20:59:00,46.2,41.3,30.09,NW,325,0.0,1.0,83,0.00,,BKN050,0.09,VWS V14.01,2013-03-09 06:59:00,
2013-03-09 21:00:00,47.8,41.9,30.08,WNW,300,0.0,0.0,80,0.00,,BKN024,0.09,VWS V14.01,2013-03-09 07:00:00,
2013-03-09 21:02:00,46.1,41.5,30.09,NW,325,0.0,0.0,84,0.00,,BKN050,0.00,VWS V14.01,2013-03-09 07:02:00,
2013-03-09 21:03:00,46.0,41.4,30.09,NW,325,0.0,0.0,84,0.00,,BKN050,0.00,VWS V14.01,2013-03-09 07:03:00,
2013-03-09 21:04:00,45.9,41.3,30.09,NW,325,0.0,0.0,84,0.00,,BKN050,0.00,VWS V14.01,2013-03-09 07:04:00,
2013-03-09 21:05:00,47.8,41.9,30.08,WNW,300,0.0,1.0,80,0.00,,BKN024,0.09,VWS V14.01,2013-03-09 07:05:00,
2013-03-09 21:06:00,45.9,41.3,30.09,NW,325,0.0,1.0,84,0.00,,BKN050,0.00,VWS V14.01,2013-03-09 07:06:00,
2013-03-09 21:07:00,45.9,41.3,30.09,NW,325,0.0,1.0,84,0.00,,BKN050,0.00,VWS V14.01,2013-03-09 07:07:00,
2013-03-09 21:08:00,45.8,41.2,30.09,NW,325,1.0,1.0,84,0.00,,BKN050,0.00,VWS V14.01,2013-03-09 07:08:00,
2013-03-09 21:09:00,45.8,41.2,30.09,NW,325,0.0,1.0,84,0.00,,BKN050,0.00,VWS V14.01,2013-03-09 07:09:00,
2013-03-09 21:10:00,47.9,42.0,30.08,WNW,300,0.0,0.0,80,0.00,,BKN024,0.09,VWS V14.01,2013-03-09 07:10:00,
2013-03-09 21:11:00,45.6,41.0,30.09,NW,325,0.0,0.0,84,0.00,,BKN050,0.00,VWS V14.01,2013-03-09 07:11:00,
2013-03-09 21:12:00,45.6,41.4,30.09,NW,325,0.0,1.0,85,0.00,,BKN050,0.00,VWS V14.01,2013-03-09 07:12:00,
2013-03-09 21:13:00,45.5,41.3,30.09,NW,325,0.0,0.0,85,0.00,,BKN050,0.00,VWS V14.01,2013-03-09 07:13:00,
2013-03-09 21:14:00,45.5,41.3,30.09,NW,325,0.0,0.0,85,0.00,,BKN050,0.00,VWS V14.01,2013-03-09 07:14:00,
2013-03-09 21:15:00,47.8,41.9,30.08,WNW,300,0.0,0.0,80,0.00,,BKN024,0.09,VWS V14.01,2013-03-09 07:15:00,
2013-03-09 21:17:00,45.4,41.2,30.09,NW,325,0.0,0.0,85,0.00,,BKN050,0.00,VWS V14.01,2013-03-09 07:17:00,
2013-03-09 21:18:00,45.3,41.1,30.09,NW,325,0.0,0.0,85,0.00,,BKN050,0.00,VWS V14.01,2013-03-09 07:18:00,
2013-03-09 21:19:00,45.3,41.1,30.09,NW,325,0.0,0.0,85,0.00,,BKN050,0.00,VWS V14.01,2013-03-09 07:19:00,
2013-03-09 21:20:00,47.7,42.2,30.08,WNW,300,0.0,0.0,81,0.00,,BKN024,0.09,VWS V14.01,2013-03-09 07:20:00,
2013-03-09 21:21:00,45.2,41.3,30.09,NW,325,0.0,1.0,86,0.00,,BKN050,0.00,VWS V14.01,2013-03-09 07:21:00,
2013-03-09 21:22:00,45.1,40.9,30.09,NW,325,0.0,1.0,85,0.00,,BKN050,0.00,VWS V14.01,2013-03-09 07:22:00,
2013-03-09 21:23:00,45.0,41.1,30.09,NW,325,0.0,1.0,86,0.00,,BKN050,0.00,VWS V14.01,2013-03-09 07:23:00,
2013-03-09 21:24:00,45.0,41.1,30.09,NW,325,0.0,0.0,86,0.00,,BKN050,0.00,VWS V14.01,2013-03-09 07:24:00,
2013-03-09 21:25:00,47.5,42.0,30.08,WNW,300,0.0,0.0,81,0.00,,BKN024,0.09,VWS V14.01,2013-03-09 07:25:00,
2013-03-09 21:26:00,44.9,41.0,30.09,NW,325,0.0,1.0,86,0.00,,BKN050,0.00,VWS V14.01,2013-03-09 07:26:00,
2013-03-09 21:27:00,44.9,41.0,30.09,NW,325,0.0,1.0,86,0.00,,BKN050,0.00,VWS V14.01,2013-03-09 07:27:00,
2013-03-09 21:28:00,44.9,41.0,30.09,NW,325,0.0,0.0,86,0.00,,BKN050,0.00,VWS V14.01,2013-03-09 07:28:00,
2013-03-09 21:29:00,44.9,41.0,30.09,NW,325,0.0,1.0,86,0.00,,BKN050,0.00,VWS V14.01,2013-03-09 07:29:00,
2013-03-09 21:30:00,47.4,41.9,30.09,NW,325,0.0,2.0,81,0.00,,BKN024,0.09,VWS V14.01,2013-03-09 07:30:00,
2013-03-09 21:31:00,44.8,41.2,30.09,NW,325,0.0,1.0,87,0.00,,BKN050,0.00,VWS V14.01,2013-03-09 07:31:00,
2013-03-09 21:32:00,44.8,40.9,30.09,NW,325,1.0,1.0,86,0.00,,BKN050,0.00,VWS V14.01,2013-03-09 07:32:00,
2013-03-09 21:33:00,44.8,41.2,30.09,NW,325,0.0,1.0,87,0.00,,BKN050,0.00,VWS V14.01,2013-03-09 07:33:00,
2013-03-09 21:34:00,44.7,41.1,30.09,NW,325,0.0,1.0,87,0.00,,BKN050,0.00,VWS V14.01,2013-03-09 07:34:00,
2013-03-09 21:35:00,47.2,42.0,30.08,NW,325,1.0,1.0,82,0.00,,BKN024,0.09,VWS V14.01,2013-03-09 07:35:00,
2013-03-09 21:36:00,44.7,41.1,30.09,NW,325,0.0,1.0,87,0.00,,BKN050,0.00,VWS V14.01,2013-03-09 07:36:00,
2013-03-09 21:37:00,44.6,41.0,30.09,NW,325,0.0,0.0,87,0.00,,BKN050,0.00,VWS V14.01,2013-03-09 07:37:00,
2013-03-09 21:38:00,44.5,40.9,30.09,NW,325,0.0,0.0,87,0.00,,BKN050,0.00,VWS V14.01,2013-03-09 07:38:00,
2013-03-09 21:39:00,44.5,40.9,30.09,NW,325,0.0,0.0,87,0.00,,BKN050,0.00,VWS V14.01,2013-03-09 07:39:00,
2013-03-09 21:40:00,47.0,41.8,30.09,NW,325,0.0,0.0,82,0.00,,BKN024,0.09,VWS V14.01,2013-03-09 07:40:00,
2013-03-09 21:42:00,44.2,40.6,30.10,NW,325,0.0,0.0,87,0.00,,BKN050,0.00,VWS V14.01,2013-03-09 07:42:00,
2013-03-09 21:43:00,44.2,40.6,30.10,NW,325,0.0,0.0,87,0.00,,BKN050,0.00,VWS V14.01,2013-03-09 07:43:00,
2013-03-09 21:44:00,44.1,40.5,30.10,NW,325,0.0,0.0,87,0.00,,BKN050,0.00,VWS V14.01,2013-03-09 07:44:00,
2013-03-09 21:45:00,46.7,41.8,30.09,NW,325,0.0,0.0,83,0.00,,BKN024,0.09,VWS V14.01,2013-03-09 07:45:00,
2013-03-09 21:46:00,44.0,40.7,30.10,NW,325,0.0,0.0,88,0.00,,BKN050,0.00,VWS V14.01,2013-03-09 07:46:00,
2013-03-09 21:48:00,43.9,40.6,30.10,NW,325,0.0,0.0,88,0.00,,BKN050,0.00,VWS V14.01,2013-03-09 07:48:00,
2013-03-09 21:50:00,46.5,41.6,30.09,NW,325,1.0,1.0,83,0.00,,BKN024,0.09,VWS V14.01,2013-03-09 07:50:00,
2013-03-09 21:52:00,43.7,40.4,30.10,NW,325,0.0,0.0,88,0.00,,BKN050,0.00,VWS V14.01,2013-03-09 07:52:00,
2013-03-09 21:53:00,43.7,40.4,30.10,NW,325,0.0,0.0,88,0.00,,BKN050,0.00,VWS V14.01,2013-03-09 07:53:00,
2013-03-09 21:54:00,43.6,40.6,30.10,NW,325,0.0,0.0,89,0.00,,BKN050,0.00,VWS V14.01,2013-03-09 07:54:00,
2013-03-09 21:55:00,46.4,41.5,30.09,NW,325,0.0,1.0,83,0.00,,BKN024,0.09,VWS V14.01,2013-03-09 07:55:00,
2013-03-09 21:56:00,43.7,40.7,30.10,NW,325,0.0,0.0,89,0.00,,BKN050,0.00,VWS V14.01,2013-03-09 07:56:00,
2013-03-09 21:57:00,43.6,40.6,30.10,NW,325,0.0,0.0,89,0.00,,BKN050,0.00,VWS V14.01,2013-03-09 07:57:00,
2013-03-09 21:58:00,43.6,40.6,30.10,NW,325,0.0,0.0,89,0.00,,BKN050,0.00,VWS V14.01,2013-03-09 07:58:00,
2013-03-09 21:59:00,43.6,40.6,30.10,NW,325,0.0,0.0,89,0.00,,BKN050,0.00,VWS V14.01,2013-03-09 07:59:00,
2013-03-09 22:00:00,46.1,41.2,30.09,NW,325,0.0,0.0,83,0.00,,BKN024,0.00,VWS V14.01,2013-03-09 08:00:00,
2013-03-09 22:01:00,43.7,40.7,30.11,NW,325,0.0,0.0,89,0.00,,BKN050,0.00,VWS V14.01,2013-03-09 08:01:00,
2013-03-09 22:02:00,43.7,40.7,30.11,NW,325,0.0,0.0,89,0.00,,BKN050,0.00,VWS V14.01,2013-03-09 08:02:00,
2013-03-09 22:03:00,43.7,40.7,30.11,NW,325,0.0,0.0,89,0.00,,BKN050,0.00,VWS V14.01,2013-03-09 08:03:00,
2013-03-09 22:04:00,43.7,40.7,30.11,NW,325,0.0,0.0,89,0.00,,BKN050,0.00,VWS V14.01,2013-03-09 08:04:00,
2013-03-09 22:05:00,45.9,41.3,30.09,NW,325,0.0,1.0,84,0.00,,BKN024,0.00,VWS V14.01,2013-03-09 08:05:00,
2013-03-09 22:06:00,43.6,40.6,30.11,NW,325,0.0,0.0,89,0.00,,BKN050,0.00,VWS V14.01,2013-03-09 08:06:00,
2013-03-09 22:07:00,43.6,40.6,30.11,NW,325,0.0,0.0,89,0.00,,BKN050,0.00,VWS V14.01,2013-03-09 08:07:00,
2013-03-09 22:08:00,43.5,40.5,30.11,NW,325,0.0,0.0,89,0.00,,BKN050,0.00,VWS V14.01,2013-03-09 08:08:00,
2013-03-09 22:09:00,43.5,40.5,30.11,NW,325,0.0,0.0,89,0.00,,BKN050,0.00,VWS V14.01,2013-03-09 08:09:00,
2013-03-09 22:10:00,45.6,41.0,30.09,NW,325,1.0,1.0,84,0.00,,BKN024,0.00,VWS V14.01,2013-03-09 08:10:00,
2013-03-09 22:11:00,43.4,40.7,30.11,NW,325,0.0,0.0,90,0.00,,BKN050,0.00,VWS V14.01,2013-03-09 08:11:00,
2013-03-09 22:12:00,43.4,40.4,30.11,NW,325,0.0,0.0,89,0.00,,BKN050,0.00,VWS V14.01,2013-03-09 08:12:00,
2013-03-09 22:13:00,43.3,40.6,30.11,NW,325,0.0,0.0,90,0.00,,BKN050,0.00,VWS V14.01,2013-03-09 08:13:00,
2013-03-09 22:15:00,45.4,41.2,30.09,NW,325,0.0,0.0,85,0.00,,BKN024,0.00,VWS V14.01,2013-03-09 08:15:00,
2013-03-09 22:16:00,43.2,40.5,30.11,NW,325,0.0,0.0,90,0.00,,BKN050,0.00,VWS V14.01,2013-03-09 08:16:00,
2013-03-09 22:17:00,43.1,40.4,30.12,NW,325,0.0,0.0,90,0.00,,BKN050,0.00,VWS V14.01,2013-03-09 08:17:00,
2013-03-09 22:18:00,43.1,40.4,30.11,NW,325,0.0,0.0,90,0.00,,BKN050,0.00,VWS V14.01,2013-03-09 08:18:00,
2013-03-09 22:19:00,43.0,40.3,30.11,NW,325,0.0,1.0,90,0.00,,BKN050,0.00,VWS V14.01,2013-03-09 08:19:00,
2013-03-09 22:20:00,45.1,41.2,30.09,NW,325,0.0,0.0,86,0.00,,BKN024,0.00,VWS V14.01,2013-03-09 08:20:00,
2013-03-09 22:21:00,43.0,40.3,30.11,NW,325,0.0,2.0,90,0.00,,BKN050,0.00,VWS V14.01,2013-03-09 08:21:00,
2013-03-09 22:24:00,43.5,41.0,30.12,WSW,250,3.0,5.0,91,0.00,,BKN050,0.00,VWS V14.01,2013-03-09 08:24:00,
2013-03-09 22:25:00,44.9,41.0,30.09,NW,325,0.0,0.0,86,0.00,,BKN024,0.00,VWS V14.01,2013-03-09 08:25:00,
2013-03-09 22:26:00,44.0,41.5,30.12,West,279,2.0,4.0,91,0.00,,BKN050,0.00,VWS V14.01,2013-03-09 08:26:00,
2013-03-09 22:27:00,44.1,41.7,30.12,West,279,0.0,2.0,91,0.00,,BKN050,0.00,VWS V14.01,2013-03-09 08:27:00,
2013-03-09 22:28:00,44.3,41.6,30.12,West,279,2.0,2.0,90,0.00,,BKN050,0.00,VWS V14.01,2013-03-09 08:28:00,
2013-03-09 22:29:00,44.6,41.8,30.12,West,262,3.0,4.0,90,0.00,,BKN050,0.00,VWS V14.01,2013-03-09 08:29:00,
2013-03-09 22:30:00,44.8,41.2,30.09,NW,325,0.0,1.0,87,0.00,,BKN024,0.00,VWS V14.01,2013-03-09 08:30:00,
2013-03-09 22:31:00,45.0,42.2,30.12,WNW,289,2.0,4.0,90,0.00,,BKN050,0.00,VWS V14.01,2013-03-09 08:31:00,
2013-03-09 22:32:00,45.2,42.2,30.12,WNW,289,2.0,2.0,89,0.00,,BKN050,0.00,VWS V14.01,2013-03-09 08:32:00,
2013-03-09 22:33:00,45.4,42.3,30.12,WNW,289,1.0,2.0,89,0.00,,BKN050,0.00,VWS V14.01,2013-03-09 08:33:00,
2013-03-09 22:34:00,45.6,42.3,30.11,WNW,284,1.0,3.0,88,0.00,,BKN050,0.00,VWS V14.01,2013-03-09 08:34:00,
2013-03-09 22:35:00,44.7,41.1,30.09,NW,325,0.0,0.0,87,0.00,,BKN024,0.00,VWS V14.01,2013-03-09 08:35:00,
2013-03-09 22:36:00,45.9,42.5,30.12,WNW,298,0.0,2.0,88,0.00,,BKN050,0.00,VWS V14.01,2013-03-09 08:36:00,
2013-03-09 22:37:00,46.1,42.8,30.12,WNW,298,1.0,1.0,88,0.00,,BKN050,0.00,VWS V14.01,2013-03-09 08:37:00,
2013-03-09 22:38:00,46.2,42.5,30.12,NW,315,3.0,7.0,87,0.00,,BKN050,0.00,VWS V14.01,2013-03-09 08:38:00,
2013-03-09 22:39:00,46.3,42.7,30.12,NNW,337,4.0,7.0,87,0.00,,BKN050,0.00,VWS V14.01,2013-03-09 08:39:00,
2013-03-09 22:40:00,44.3,40.7,30.10,NW,325,0.0,0.0,87,0.00,,BKN024,0.00,VWS V14.01,2013-03-09 08:40:00,
2013-03-09 22:41:00,46.6,42.6,30.12,WNW,301,3.0,3.0,86,0.00,,BKN050,0.00,VWS V14.01,2013-03-09 08:41:00,
2013-03-09 22:42:00,46.8,42.8,30.12,WNW,300,3.0,4.0,86,0.00,,BKN050,0.00,VWS V14.01,2013-03-09 08:42:00,
2013-03-09 22:43:00,46.9,42.6,30.12,WNW,294,2.0,4.0,85,0.00,,BKN050,0.00,VWS V14.01,2013-03-09 08:43:00,
2013-03-09 22:44:00,47.0,42.7,30.11,WNW,294,2.0,4.0,85,0.00,,BKN050,0.00,VWS V14.01,2013-03-09 08:44:00,
2013-03-09 22:45:00,44.0,40.7,30.10,NW,325,0.0,0.0,88,0.00,,BKN024,0.00,VWS V14.01,2013-03-09 08:45:00,
2013-03-09 22:47:00,47.3,42.7,30.12,NNW,327,1.0,5.0,84,0.00,,BKN050,0.00,VWS V14.01,2013-03-09 08:47:00,
2013-03-09 22:48:00,47.4,42.8,30.12,NW,311,2.0,5.0,84,0.00,,BKN050,0.00,VWS V14.01,2013-03-09 08:48:00,
2013-03-09 22:49:00,47.5,42.9,30.12,West,262,7.0,7.0,84,0.00,,BKN050,0.00,VWS V14.01,2013-03-09 08:49:00,
2013-03-09 22:50:00,43.8,40.5,30.10,NW,325,0.0,0.0,88,0.00,,BKN024,0.00,VWS V14.01,2013-03-09 08:50:00,
2013-03-09 22:51:00,47.7,42.8,30.12,NW,309,2.0,4.0,83,0.00,,BKN050,0.00,VWS V14.01,2013-03-09 08:51:00,
2013-03-09 22:52:00,47.7,42.8,30.11,West,273,1.0,5.0,83,0.00,,BKN050,0.00,VWS V14.01,2013-03-09 08:52:00,
2013-03-09 22:53:00,47.8,42.9,30.12,WNW,288,1.0,4.0,83,0.00,,BKN050,0.00,VWS V14.01,2013-03-09 08:53:00,
2013-03-09 22:54:00,47.9,42.7,30.12,WNW,292,4.0,4.0,82,0.00,,BKN050,0.00,VWS V14.01,2013-03-09 08:54:00,
2013-03-09 22:55:00,43.7,40.7,30.10,NW,325,0.0,0.0,89,0.00,,BKN024,0.00,VWS V14.01,2013-03-09 08:55:00,
2013-03-09 22:56:00,48.0,42.8,30.12,WNW,296,4.0,4.0,82,0.00,,BKN050,0.00,VWS V14.01,2013-03-09 08:56:00,
2013-03-09 22:57:00,48.0,42.8,30.12,NNW,338,3.0,4.0,82,0.00,,BKN050,0.00,VWS V14.01,2013-03-09 08:57:00,
2013-03-09 22:58:00,48.1,42.9,30.12,NW,321,5.0,6.0,82,0.00,,BKN050,0.00,VWS V14.01,2013-03-09 08:58:00,
2013-03-09 22:59:00,48.1,42.9,30.12,NW,321,0.0,5.0,82,0.00,,BKN050,0.00,VWS V14.01,2013-03-09 08:59:00,
2013-03-09 23:00:00,43.7,40.7,30.11,NW,325,0.0,0.0,89,0.00,,BKN024,0.00,VWS V14.01,2013-03-09 09:00:00,
2013-03-09 23:01:00,48.2,42.7,30.12,WNW,294,1.0,4.0,81,0.00,,BKN050,0.00,VWS V14.01,2013-03-09 09:01:00,
2013-03-09 23:02:00,48.2,42.7,30.12,WNW,286,3.0,3.0,81,0.00,,BKN050,0.00,VWS V14.01,2013-03-09 09:02:00,
2013-03-09 23:03:00,48.2,42.7,30.12,West,274,3.0,5.0,81,0.00,,BKN050,0.00,VWS V14.01,2013-03-09 09:03:00,
2013-03-09 23:04:00,48.3,42.8,30.12,NW,308,4.0,4.0,81,0.00,,BKN050,0.00,VWS V14.01,2013-03-09 09:04:00,
2013-03-09 23:05:00,43.6,40.6,30.11,NW,325,0.0,0.0,89,0.00,,BKN024,0.00,VWS V14.01,2013-03-09 09:05:00,
2013-03-09 23:06:00,48.3,42.8,30.12,WNW,289,2.0,3.0,81,0.00,,BKN050,0.00,VWS V14.01,2013-03-09 09:06:00,
2013-03-09 23:07:00,48.3,42.8,30.12,NW,308,3.0,3.0,81,0.00,,BKN050,0.00,VWS V14.01,2013-03-09 09:07:00,
2013-03-09 23:08:00,48.3,42.8,30.12,WNW,290,3.0,5.0,81,0.00,,BKN050,0.00,VWS V14.01,2013-03-09 09:08:00,
2013-03-09 23:09:00,48.3,42.8,30.11,West,265,4.0,4.0,81,0.00,,BKN050,0.00,VWS V14.01,2013-03-09 09:09:00,
2013-03-09 23:10:00,43.4,40.7,30.11,NW,325,0.0,0.0,90,0.00,,BKN024,0.00,VWS V14.01,2013-03-09 09:10:00,
2013-03-09 23:11:00,48.3,42.8,30.11,West,280,3.0,4.0,81,0.00,,BKN050,0.00,VWS V14.01,2013-03-09 09:11:00,
2013-03-09 23:12:00,48.3,42.8,30.11,West,264,4.0,6.0,81,0.00,,BKN050,0.00,VWS V14.01,2013-03-09 09:12:00,
2013-03-09 23:13:00,48.3,42.8,30.11,NW,304,2.0,5.0,81,0.00,,BKN050,0.00,VWS V14.01,2013-03-09 09:13:00,
2013-03-09 23:14:00,48.3,42.8,30.11,WNW,291,4.0,4.0,81,0.00,,BKN050,0.00,VWS V14.01,2013-03-09 09:14:00,
2013-03-09 23:15:00,43.2,40.5,30.12,NW,325,0.0,0.0,90,0.00,,BKN024,0.00,VWS V14.01,2013-03-09 09:15:00,
2013-03-09 23:16:00,48.3,42.8,30.11,WNW,290,0.0,3.0,81,0.00,,BKN050,0.00,VWS V14.01,2013-03-09 09:16:00,
2013-03-09 23:19:00,48.3,42.8,30.11,WNW,302,3.0,3.0,81,0.00,,BKN050,0.00,VWS V14.01,2013-03-09 09:19:00,
2013-03-09 23:20:00,43.1,40.4,30.12,NW,325,0.0,1.0,90,0.00,,BKN024,0.00,VWS V14.01,2013-03-09 09:20:00,
2013-03-09 23:25:00,44.0,41.5,30.12,West,279,0.0,2.0,91,0.00,,BKN024,0.00,VWS V14.01,2013-03-09 09:25:00,
2013-03-09 23:26:00,48.3,42.4,30.11,West,273,1.0,1.0,80,0.00,,BKN050,0.00,VWS V14.01,2013-03-09 09:26:00,
2013-03-09 23:27:00,48.2,42.3,30.11,WSW,246,4.0,5.0,80,0.00,,BKN050,0.00,VWS V14.01,2013-03-09 09:27:00,
2013-03-09 23:28:00,48.2,42.3,30.11,WSW,246,1.0,4.0,80,0.00,,BKN050,0.00,VWS V14.01,2013-03-09 09:28:00,
2013-03-09 23:29:00,48.2,42.3,30.11,WNW,294,1.0,4.0,80,0.00,,BKN050,0.00,VWS V14.01,2013-03-09 09:29:00,
2013-03-09 23:30:00,45.1,42.3,30.12,WNW,289,1.0,2.0,90,0.00,,BKN024,0.00,VWS V14.01,2013-03-09 09:30:00,
2013-03-09 23:31:00,48.1,42.2,30.11,West,273,1.0,5.0,80,0.00,,BKN050,0.00,VWS V14.01,2013-03-09 09:31:00,
2013-03-09 23:32:00,48.1,42.6,30.11,WNW,283,3.0,4.0,81,0.00,,BKN050,0.00,VWS V14.01,2013-03-09 09:32:00,
2013-03-09 23:33:00,48.1,42.6,30.11,WNW,286,0.0,3.0,81,0.00,,BKN050,0.00,VWS V14.01,2013-03-09 09:33:00,
2013-03-09 23:35:00,46.0,42.7,30.12,WNW,298,1.0,1.0,88,0.00,,BKN024,0.00,VWS V14.01,2013-03-09 09:35:00,
2013-03-09 23:37:00,48.0,42.5,30.10,West,278,0.0,2.0,81,0.00,,BKN050,0.00,VWS V14.01,2013-03-09 09:37:00,
2013-03-09 23:38:00,48.0,42.5,30.10,West,278,1.0,1.0,81,0.00,,BKN050,0.00,VWS V14.01,2013-03-09 09:38:00,
2013-03-09 23:39:00,47.9,42.4,30.10,West,278,1.0,2.0,81,0.00,,BKN050,0.00,VWS V14.01,2013-03-09 09:39:00,
2013-03-09 23:40:00,46.7,42.7,30.12,WNW,301,2.0,4.0,86,0.00,,BKN024,0.00,VWS V14.01,2013-03-09 09:40:00,
2013-03-09 23:41:00,47.9,42.4,30.10,West,278,0.0,0.0,81,0.00,,BKN050,0.00,VWS V14.01,2013-03-09 09:41:00,
2013-03-09 23:42:00,47.8,42.3,30.10,West,278,0.0,0.0,81,0.00,,BKN050,0.00,VWS V14.01,2013-03-09 09:42:00,
2013-03-09 23:43:00,47.8,42.3,30.10,West,278,0.0,0.0,81,0.00,,BKN050,0.00,VWS V14.01,2013-03-09 09:43:00,
2013-03-09 23:44:00,47.7,42.2,30.10,West,278,0.0,0.0,81,0.00,,BKN050,0.00,VWS V14.01,2013-03-09 09:44:00,
2013-03-09 23:45:00,47.3,42.7,30.12,NNW,329,4.0,5.0,84,0.00,,BKN024,0.00,VWS V14.01,2013-03-09 09:45:00,
2013-03-09 23:46:00,47.5,42.0,30.10,West,278,0.0,1.0,81,0.00,,BKN050,0.00,VWS V14.01,2013-03-09 09:46:00,
2013-03-09 23:47:00,47.5,42.0,30.10,West,278,1.0,2.0,81,0.00,,BKN050,0.00,VWS V14.01,2013-03-09 09:47:00,
2013-03-09 23:48:00,47.4,41.9,30.10,West,278,3.0,3.0,81,0.00,,BKN050,0.00,VWS V14.01,2013-03-09 09:48:00,
2013-03-09 23:49:00,47.4,41.9,30.10,West,278,1.0,3.0,81,0.00,,BKN050,0.00,VWS V14.01,2013-03-09 09:49:00,
2013-03-09 23:50:00,47.7,42.8,30.11,NNW,330,3.0,4.0,83,0.00,,BKN024,0.00,VWS V14.01,2013-03-09 09:50:00,
2013-03-09 23:51:00,47.3,42.1,30.10,West,278,0.0,0.0,82,0.00,,BKN050,0.00,VWS V14.01,2013-03-09 09:51:00,
2013-03-09 23:52:00,47.3,42.1,30.10,West,278,0.0,0.0,82,0.00,,BKN050,0.00,VWS V14.01,2013-03-09 09:52:00,
2013-03-09 23:53:00,47.2,42.0,30.10,West,278,0.0,0.0,82,0.00,,BKN050,0.00,VWS V14.01,2013-03-09 09:53:00,
2013-03-09 23:54:00,47.1,41.9,30.10,West,278,0.0,0.0,82,0.00,,BKN050,0.00,VWS V14.01,2013-03-09 09:54:00,
2013-03-09 23:55:00,48.0,42.8,30.12,SW,234,3.0,4.0,82,0.00,,BKN024,0.00,VWS V14.01,2013-03-09 09:55:00,
2013-03-09 23:56:00,47.1,41.9,30.10,West,278,0.0,1.0,82,0.00,,BKN050,0.00,VWS V14.01,2013-03-09 09:56:00,
2013-03-09 23:57:00,47.0,41.8,30.10,West,278,0.0,1.0,82,0.00,,BKN050,0.00,VWS V14.01,2013-03-09 09:57:00,
2013-03-09 23:58:00,47.0,41.8,30.10,West,278,0.0,0.0,82,0.00,,BKN050,0.00,VWS V14.01,2013-03-09 09:58:00,
2013-03-09 23:59:00,46.9,41.7,30.10,West,278,0.0,0.0,82,0.00,,BKN050,0.00,VWS V14.01,2013-03-09 09:59:00,